Observation data for Mertzon on 01/19/2019      Previous  Date  Next       Current Mesonet Observations  Soil Data  Daily Summary Page  Observations in Plain Language
KME1 190600Z 31017G23KT 11/02 A2998 RMK A01 T01060017  RH  054%=      5-min Rain = 0
KME1 190601Z 30021G29KT 11/02 A2999 RMK A01 T01050018  RH  055%=      5-min Rain = 0
KME1 190602Z 31018KT 10/02 A2999 RMK A01 T01030018  RH  056%=      5-min Rain = 0
KME1 190603Z 31015G23KT 10/02 A2999 RMK A01 T01020019  RH  056%=      5-min Rain = 0
KME1 190604Z 31018G24KT 10/02 A2999 RMK A01 T01010019  RH  057%=      5-min Rain = 0
KME1 190605Z 31019KT 10/02 A2999 RMK A01 T01010019  RH  057%=      5-min Rain = 0
KME1 190606Z 31019G27KT 10/02 A2999 RMK A01 T01000019  RH  057%=      5-min Rain = 0
KME1 190607Z 31020KT 10/02 A30 RMK A01 T00990019  RH  058%=      5-min Rain = 0
KME1 190608Z 31017KT 10/02 A30 RMK A01 T00980019  RH  058%=      5-min Rain = 0
KME1 190609Z 31022G30KT 10/02 A30 RMK A01 T00980020  RH  058%=      5-min Rain = 0
KME1 190610Z 31021G27KT 10/02 A30 RMK A01 T00970020  RH  058%=      5-min Rain = 0
KME1 190611Z 31021G29KT 10/02 A30 RMK A01 T00970020  RH  059%=      5-min Rain = 0
KME1 190612Z 32023G28KT 10/02 A30 RMK A01 T00960020  RH  059%=      5-min Rain = 0
KME1 190613Z 31019G24KT 10/02 A30 RMK A01 T00960020  RH  059%=      5-min Rain = 0
KME1 190614Z 31018KT 10/02 A30 RMK A01 T00960020  RH  059%=      5-min Rain = 0
KME1 190615Z 31023KT 10/02 A3001 RMK A01 T00950020  RH  060%=      5-min Rain = 0
KME1 190616Z 31020G27KT 09/02 A3001 RMK A01 T00940021  RH  060%=      5-min Rain = 0
KME1 190617Z 31018G24KT 09/02 A3001 RMK A01 T00940021  RH  060%=      5-min Rain = 0
KME1 190618Z 31018G28KT 09/02 A3001 RMK A01 T00930021  RH  060%=      5-min Rain = 0
KME1 190619Z 32020G28KT 09/02 A3001 RMK A01 T00930021  RH  061%=      5-min Rain = 0
KME1 190620Z 31016KT 09/02 A3001 RMK A01 T00930021  RH  061%=      5-min Rain = 0
KME1 190621Z 31014KT 09/02 A3001 RMK A01 T00930021  RH  061%=      5-min Rain = 0
KME1 190622Z 31015G24KT 09/02 A3001 RMK A01 T00920021  RH  061%=      5-min Rain = 0
KME1 190623Z 32013G18KT 09/02 A3002 RMK A01 T00920021  RH  061%=      5-min Rain = 0
KME1 190624Z 32014KT 09/02 A3002 RMK A01 T00910021  RH  062%=      5-min Rain = 0
KME1 190625Z 31017G25KT 09/02 A3002 RMK A01 T00910022  RH  062%=      5-min Rain = 0
KME1 190626Z 31021G26KT 09/02 A3002 RMK A01 T00910021  RH  061%=      5-min Rain = 0
KME1 190627Z 31016G22KT 09/02 A3002 RMK A01 T00920021  RH  061%=      5-min Rain = 0
KME1 190628Z 31019G24KT 09/02 A3002 RMK A01 T00920021  RH  061%=      5-min Rain = 0
KME1 190629Z 31018KT 09/02 A3002 RMK A01 T00920022  RH  061%=      5-min Rain = 0
KME1 190630Z 32017G23KT 09/02 A3002 RMK A01 T00920022  RH  061%=      5-min Rain = 0
KME1 190631Z 32016KT 09/02 A3002 RMK A01 T00930022  RH  061%=      5-min Rain = 0
KME1 190632Z 31017KT 09/02 A3002 RMK A01 T00930022  RH  061%=      5-min Rain = 0
KME1 190633Z 31019KT 09/02 A3002 RMK A01 T00930022  RH  061%=      5-min Rain = 0
KME1 190634Z 32016G21KT 09/02 A3002 RMK A01 T00930022  RH  061%=      5-min Rain = 0
KME1 190635Z 32015KT 09/02 A3002 RMK A01 T00930022  RH  061%=      5-min Rain = 0
KME1 190636Z 32019KT 09/02 A3002 RMK A01 T00930022  RH  061%=      5-min Rain = 0
KME1 190637Z 33016KT 09/02 A3003 RMK A01 T00930022  RH  061%=      5-min Rain = 0
KME1 190638Z 31015KT 09/02 A3002 RMK A01 T00930022  RH  061%=      5-min Rain = 0
KME1 190639Z 33014KT 09/02 A3002 RMK A01 T00930022  RH  061%=      5-min Rain = 0
KME1 190640Z 32016G21KT 09/02 A3002 RMK A01 T00930022  RH  061%=      5-min Rain = 0
KME1 190641Z 32014KT 09/02 A3002 RMK A01 T00930022  RH  061%=      5-min Rain = 0
KME1 190642Z 33017G23KT 09/02 A3003 RMK A01 T00930022  RH  061%=      5-min Rain = 0
KME1 190643Z 33017KT 09/02 A3003 RMK A01 T00920021  RH  061%=      5-min Rain = 0
KME1 190644Z 34013G18KT 09/02 A3003 RMK A01 T00920021  RH  061%=      5-min Rain = 0
KME1 190645Z 34017KT 09/02 A3003 RMK A01 T00920021  RH  061%=      5-min Rain = 0
KME1 190646Z 34017G25KT 09/02 A3003 RMK A01 T00920019  RH  060%=      5-min Rain = 0
KME1 190647Z 34019G24KT 09/02 A3003 RMK A01 T00920018  RH  060%=      5-min Rain = 0
KME1 190648Z 33017G26KT 09/02 A3003 RMK A01 T00920018  RH  060%=      5-min Rain = 0
KME1 190649Z 33022G29KT 09/02 A3003 RMK A01 T00920015  RH  059%=      5-min Rain = 0
KME1 190650Z 33019G26KT 09/01 A3003 RMK A01 T00910011  RH  057%=      5-min Rain = 0
KME1 190651Z 33019G26KT 09/01 A3003 RMK A01 T00900009  RH  057%=      5-min Rain = 0
KME1 190652Z 33022KT 09/01 A3002 RMK A01 T00900007  RH  056%=      5-min Rain = 0
KME1 190653Z 33022G27KT 09/01 A3002 RMK A01 T00890006  RH  056%=      5-min Rain = 0
KME1 190654Z 33018G26KT 09/00 A3002 RMK A01 T00890004  RH  055%=      5-min Rain = 0
KME1 190655Z 33022G28KT 09/00 A3002 RMK A01 T00880004  RH  056%=      5-min Rain = 0
KME1 190656Z 33017G22KT 09/00 A3002 RMK A01 T00880004  RH  055%=      5-min Rain = 0
KME1 190657Z 33017G25KT 09/00 A3003 RMK A01 T00870004  RH  056%=      5-min Rain = 0
KME1 190658Z 33016KT 09/00 A3003 RMK A01 T00870004  RH  056%=      5-min Rain = 0
KME1 190659Z 33016G21KT 09/00 A3003 RMK A01 T00870003  RH  056%=      5-min Rain = 0
KME1 190700Z 33017KT 09/00 A3003 RMK A01 T00860002  RH  056%=      5-min Rain = 0
KME1 190701Z 32015G20KT 09/00 A3003 RMK A01 T00860002  RH  056%=      5-min Rain = 0
KME1 190702Z 33015G21KT 09/00 A3004 RMK A01 T00860003  RH  056%=      5-min Rain = 0
KME1 190703Z 34017KT 09/00 A3004 RMK A01 T00850002  RH  056%=      5-min Rain = 0
KME1 190704Z 34019KT 09/00 A3004 RMK A01 T00850001  RH  055%=      5-min Rain = 0
KME1 190705Z 34021G26KT 08/M00 A3004 RMK A01 T00841002  RH  055%=      5-min Rain = 0
KME1 190706Z 34023KT 08/M00 A3004 RMK A01 T00831004  RH  054%=      5-min Rain = 0
KME1 190707Z 33017G22KT 08/M01 A3004 RMK A01 T00811005  RH  054%=      5-min Rain = 0
KME1 190708Z 33021G27KT 08/M01 A3004 RMK A01 T00811006  RH  055%=      5-min Rain = 0
KME1 190709Z 34020G25KT 08/M01 A3004 RMK A01 T00791008  RH  054%=      5-min Rain = 0
KME1 190710Z 33021G27KT 08/M01 A3004 RMK A01 T00781009  RH  054%=      5-min Rain = 0
KME1 190711Z 34018KT 08/M01 A3005 RMK A01 T00771010  RH  054%=      5-min Rain = 0
KME1 190712Z 33019G26KT 08/M01 A3004 RMK A01 T00761010  RH  054%=      5-min Rain = 0
KME1 190713Z 33021G27KT 08/M01 A3005 RMK A01 T00751011  RH  054%=      5-min Rain = 0
KME1 190714Z 34021KT 07/M01 A3005 RMK A01 T00741011  RH  055%=      5-min Rain = 0
KME1 190715Z 34020G25KT 07/M01 A3005 RMK A01 T00731012  RH  055%=      5-min Rain = 0
KME1 190716Z 33019KT 07/M01 A3005 RMK A01 T00731012  RH  055%=      5-min Rain = 0
KME1 190717Z 33020G25KT 07/M01 A3005 RMK A01 T00721012  RH  055%=      5-min Rain = 0
KME1 190718Z 33019G24KT 07/M01 A3005 RMK A01 T00721012  RH  055%=      5-min Rain = 0
KME1 190719Z 33016KT 07/M01 A3005 RMK A01 T00711012  RH  055%=      5-min Rain = 0
KME1 190720Z 33015G20KT 07/M01 A3005 RMK A01 T00711012  RH  056%=      5-min Rain = 0
KME1 190721Z 34017G22KT 07/M01 A3005 RMK A01 T00701012  RH  056%=      5-min Rain = 0
KME1 190722Z 33017G22KT 07/M01 A3005 RMK A01 T00701012  RH  056%=      5-min Rain = 0
KME1 190723Z 33016G22KT 07/M01 A3005 RMK A01 T00701012  RH  056%=      5-min Rain = 0
KME1 190724Z 33017G22KT 07/M01 A3005 RMK A01 T00701012  RH  056%=      5-min Rain = 0
KME1 190725Z 33014G19KT 07/M01 A3005 RMK A01 T00691012  RH  056%=      5-min Rain = 0
KME1 190726Z 33015G20KT 07/M01 A3005 RMK A01 T00691012  RH  056%=      5-min Rain = 0
KME1 190727Z 32012KT 07/M01 A3005 RMK A01 T00691012  RH  056%=      5-min Rain = 0
KME1 190728Z 33015G21KT 07/M01 A3005 RMK A01 T00681012  RH  057%=      5-min Rain = 0
KME1 190729Z 33019G24KT 07/M01 A3005 RMK A01 T00681012  RH  057%=      5-min Rain = 0
KME1 190730Z 32023G32KT 07/M01 A3005 RMK A01 T00681012  RH  057%=      5-min Rain = 0
KME1 190731Z 32018KT 07/M01 A3005 RMK A01 T00691012  RH  056%=      5-min Rain = 0
KME1 190732Z 33018G23KT 07/M01 A3005 RMK A01 T00691012  RH  056%=      5-min Rain = 0
KME1 190733Z 32018G24KT 07/M01 A3005 RMK A01 T00681013  RH  056%=      5-min Rain = 0
KME1 190734Z 31018G23KT 07/M01 A3005 RMK A01 T00691013  RH  056%=      5-min Rain = 0
KME1 190735Z 32014G20KT 07/M01 A3005 RMK A01 T00681012  RH  056%=      5-min Rain = 0
KME1 190736Z 31017G22KT 07/M01 A3005 RMK A01 T00681013  RH  057%=      5-min Rain = 0
KME1 190737Z 32024G30KT 07/M01 A3005 RMK A01 T00671013  RH  057%=      5-min Rain = 0
KME1 190738Z 32025KT 07/M01 A3004 RMK A01 T00671014  RH  056%=      5-min Rain = 0
KME1 190739Z 32018KT 07/M02 A3005 RMK A01 T00681015  RH  056%=      5-min Rain = 0
KME1 190740Z 32019KT 07/M01 A3005 RMK A01 T00681014  RH  056%=      5-min Rain = 0
KME1 190741Z 33015KT 07/M01 A3005 RMK A01 T00671014  RH  056%=      5-min Rain = 0
KME1 190742Z 32019KT 07/M01 A3005 RMK A01 T00671014  RH  056%=      5-min Rain = 0
KME1 190743Z 32017KT 07/M01 A3005 RMK A01 T00661014  RH  057%=      5-min Rain = 0
KME1 190744Z 32020KT 07/M01 A3005 RMK A01 T00661014  RH  057%=      5-min Rain = 0
KME1 190745Z 32020G25KT 07/M01 A3005 RMK A01 T00661014  RH  057%=      5-min Rain = 0
KME1 190746Z 32016G21KT 07/M01 A3005 RMK A01 T00661014  RH  057%=      5-min Rain = 0
KME1 190747Z 32015KT 07/M01 A3005 RMK A01 T00651014  RH  057%=      5-min Rain = 0
KME1 190748Z 32018KT 07/M01 A3005 RMK A01 T00651014  RH  057%=      5-min Rain = 0
KME1 190749Z 32017KT 07/M01 A3005 RMK A01 T00651013  RH  057%=      5-min Rain = 0
KME1 190750Z 32018KT 07/M01 A3005 RMK A01 T00651013  RH  057%=      5-min Rain = 0
KME1 190751Z 33015KT 07/M01 A3005 RMK A01 T00651014  RH  057%=      5-min Rain = 0
KME1 190752Z 32013G20KT 07/M01 A3005 RMK A01 T00651013  RH  057%=      5-min Rain = 0
KME1 190753Z 32015KT 06/M01 A3006 RMK A01 T00641013  RH  058%=      5-min Rain = 0
KME1 190754Z 32017KT 06/M01 A3006 RMK A01 T00641013  RH  058%=      5-min Rain = 0
KME1 190755Z 32015G20KT 06/M01 A3006 RMK A01 T00641013  RH  058%=      5-min Rain = 0
KME1 190756Z 32013KT 06/M01 A3006 RMK A01 T00641013  RH  058%=      5-min Rain = 0
KME1 190757Z 32013G18KT 06/M01 A3006 RMK A01 T00631013  RH  058%=      5-min Rain = 0
KME1 190758Z 32014KT 06/M01 A3006 RMK A01 T00631012  RH  058%=      5-min Rain = 0
KME1 190759Z 33016KT 06/M01 A3006 RMK A01 T00631013  RH  059%=      5-min Rain = 0
KME1 190800Z 32013KT 06/M01 A3006 RMK A01 T00631012  RH  059%=      5-min Rain = 0
KME1 190801Z 32014KT 06/M01 A3006 RMK A01 T00621012  RH  059%=      5-min Rain = 0
KME1 190802Z 32017G24KT 06/M01 A3006 RMK A01 T00621012  RH  059%=      5-min Rain = 0
KME1 190803Z 32018G23KT 06/M01 A3006 RMK A01 T00621013  RH  059%=      5-min Rain = 0
KME1 190804Z 32016KT 06/M01 A3006 RMK A01 T00621013  RH  059%=      5-min Rain = 0
KME1 190805Z 32014KT 06/M01 A3006 RMK A01 T00631012  RH  059%=      5-min Rain = 0
KME1 190806Z 32016G22KT 06/M01 A3006 RMK A01 T00621013  RH  059%=      5-min Rain = 0
KME1 190807Z 32020KT 06/M01 A3006 RMK A01 T00621013  RH  059%=      5-min Rain = 0
KME1 190808Z 31015KT 06/M01 A3006 RMK A01 T00621013  RH  058%=      5-min Rain = 0
KME1 190809Z 32019KT 06/M01 A3006 RMK A01 T00621014  RH  058%=      5-min Rain = 0
KME1 190810Z 32014KT 06/M01 A3006 RMK A01 T00621013  RH  059%=      5-min Rain = 0
KME1 190811Z 32016G22KT 06/M01 A3006 RMK A01 T00621013  RH  059%=      5-min Rain = 0
KME1 190812Z 32019G24KT 06/M01 A3006 RMK A01 T00611014  RH  059%=      5-min Rain = 0
KME1 190813Z 33023G32KT 06/M02 A3006 RMK A01 T00611016  RH  058%=      5-min Rain = 0
KME1 190814Z 32018G26KT 06/M02 A3006 RMK A01 T00601018  RH  057%=      5-min Rain = 0
KME1 190815Z 32018G23KT 06/M02 A3007 RMK A01 T00601018  RH  057%=      5-min Rain = 0
KME1 190816Z 33019KT 06/M02 A3006 RMK A01 T00591019  RH  057%=      5-min Rain = 0
KME1 190817Z 32020G25KT 06/M02 A3007 RMK A01 T00591020  RH  057%=      5-min Rain = 0
KME1 190818Z 33020KT 06/M02 A3007 RMK A01 T00591021  RH  057%=      5-min Rain = 0
KME1 190819Z 32019G24KT 06/M02 A3007 RMK A01 T00581021  RH  057%=      5-min Rain = 0
KME1 190820Z 33019G25KT 06/M02 A3007 RMK A01 T00581021  RH  057%=      5-min Rain = 0
KME1 190821Z 33015G20KT 06/M02 A3007 RMK A01 T00581021  RH  057%=      5-min Rain = 0
KME1 190822Z 33016KT 06/M02 A3007 RMK A01 T00571022  RH  057%=      5-min Rain = 0
KME1 190823Z 32013G20KT 06/M02 A3008 RMK A01 T00571022  RH  057%=      5-min Rain = 0
KME1 190824Z 33017KT 06/M02 A3008 RMK A01 T00561022  RH  057%=      5-min Rain = 0
KME1 190825Z 32015G20KT 06/M02 A3008 RMK A01 T00561022  RH  057%=      5-min Rain = 0
KME1 190826Z 33014G23KT 06/M02 A3008 RMK A01 T00551022  RH  057%=      5-min Rain = 0
KME1 190827Z 32017G22KT 06/M02 A3008 RMK A01 T00551023  RH  057%=      5-min Rain = 0
KME1 190828Z 32014G20KT 06/M02 A3008 RMK A01 T00551022  RH  057%=      5-min Rain = 0
KME1 190829Z 32014KT 06/M02 A3008 RMK A01 T00551023  RH  057%=      5-min Rain = 0
KME1 190830Z 33011KT 05/M02 A3008 RMK A01 T00541022  RH  058%=      5-min Rain = 0
KME1 190831Z 33012G17KT 05/M02 A3008 RMK A01 T00541022  RH  058%=      5-min Rain = 0
KME1 190832Z 33015G20KT 05/M02 A3008 RMK A01 T00531022  RH  058%=      5-min Rain = 0
KME1 190833Z 32017G23KT 05/M02 A3008 RMK A01 T00531023  RH  058%=      5-min Rain = 0
KME1 190834Z 33018KT 05/M02 A3008 RMK A01 T00531023  RH  058%=      5-min Rain = 0
KME1 190835Z 33018G26KT 05/M02 A3008 RMK A01 T00541023  RH  058%=      5-min Rain = 0
KME1 190836Z 33022G30KT 05/M02 A3008 RMK A01 T00541023  RH  058%=      5-min Rain = 0
KME1 190837Z 33022G27KT 05/M02 A3009 RMK A01 T00541024  RH  057%=      5-min Rain = 0
KME1 190838Z 33016G21KT 05/M02 A3009 RMK A01 T00541024  RH  057%=      5-min Rain = 0
KME1 190839Z 33018G26KT 05/M02 A3009 RMK A01 T00541023  RH  057%=      5-min Rain = 0
KME1 190840Z 33022KT 05/M02 A3009 RMK A01 T00541023  RH  058%=      5-min Rain = 0
KME1 190841Z 33019KT 05/M02 A3009 RMK A01 T00541023  RH  057%=      5-min Rain = 0
KME1 190842Z 34019G25KT 05/M02 A3009 RMK A01 T00541024  RH  057%=      5-min Rain = 0
KME1 190843Z 33017G23KT 05/M02 A3009 RMK A01 T00541023  RH  058%=      5-min Rain = 0
KME1 190844Z 33015G20KT 05/M02 A3009 RMK A01 T00531023  RH  058%=      5-min Rain = 0
KME1 190845Z 33015KT 05/M02 A3009 RMK A01 T00531023  RH  058%=      5-min Rain = 0
KME1 190846Z 33017G24KT 05/M02 A3009 RMK A01 T00531023  RH  058%=      5-min Rain = 0
KME1 190847Z 34014KT 05/M02 A3009 RMK A01 T00521023  RH  058%=      5-min Rain = 0
KME1 190848Z 33012KT 05/M02 A301 RMK A01 T00511023  RH  059%=      5-min Rain = 0
KME1 190849Z 33017G24KT 05/M02 A301 RMK A01 T00511023  RH  059%=      5-min Rain = 0
KME1 190850Z 33015KT 05/M02 A301 RMK A01 T00511023  RH  059%=      5-min Rain = 0
KME1 190851Z 33013KT 05/M02 A301 RMK A01 T00511023  RH  059%=      5-min Rain = 0
KME1 190852Z 33013G18KT 05/M02 A301 RMK A01 T00511022  RH  059%=      5-min Rain = 0
KME1 190853Z 33015G20KT 05/M02 A301 RMK A01 T00501023  RH  059%=      5-min Rain = 0
KME1 190854Z 33011KT 05/M02 A301 RMK A01 T00501023  RH  059%=      5-min Rain = 0
KME1 190855Z 33010KT 05/M02 A301 RMK A01 T00501022  RH  059%=      5-min Rain = 0
KME1 190856Z 33011G16KT 05/M02 A301 RMK A01 T00501022  RH  060%=      5-min Rain = 0
KME1 190857Z 33011KT 05/M02 A301 RMK A01 T00501022  RH  060%=      5-min Rain = 0
KME1 190858Z 33012KT 05/M02 A301 RMK A01 T00501022  RH  060%=      5-min Rain = 0
KME1 190859Z 33011KT 05/M02 A301 RMK A01 T00501022  RH  060%=      5-min Rain = 0
KME1 190900Z 33012KT 05/M02 A301 RMK A01 T00501022  RH  060%=      5-min Rain = 0
KME1 190901Z 33012KT 05/M02 A3011 RMK A01 T00501022  RH  060%=      5-min Rain = 0
KME1 190902Z 32012G18KT 05/M02 A3011 RMK A01 T00501022  RH  060%=      5-min Rain = 0
KME1 190903Z 33014KT 05/M02 A3011 RMK A01 T00501022  RH  060%=      5-min Rain = 0
KME1 190904Z 33012G17KT 05/M02 A3011 RMK A01 T00501021  RH  060%=      5-min Rain = 0
KME1 190905Z 33011KT 05/M02 A3011 RMK A01 T00501021  RH  060%=      5-min Rain = 0
KME1 190906Z 33012G18KT 05/M02 A3011 RMK A01 T00501021  RH  060%=      5-min Rain = 0
KME1 190907Z 33012KT 05/M02 A3011 RMK A01 T00501021  RH  060%=      5-min Rain = 0
KME1 190908Z 33012KT 05/M02 A3011 RMK A01 T00501021  RH  060%=      5-min Rain = 0
KME1 190909Z 32012KT 05/M02 A3011 RMK A01 T00501021  RH  060%=      5-min Rain = 0
KME1 190910Z 33009KT 05/M02 A3012 RMK A01 T00501021  RH  060%=      5-min Rain = 0
KME1 190911Z 33013KT 05/M02 A3012 RMK A01 T00511020  RH  060%=      5-min Rain = 0
KME1 190912Z 33015KT 05/M02 A3012 RMK A01 T00511020  RH  060%=      5-min Rain = 0
KME1 190913Z 33014G19KT 05/M02 A3012 RMK A01 T00511020  RH  060%=      5-min Rain = 0
KME1 190914Z 33014KT 05/M02 A3012 RMK A01 T00511021  RH  059%=      5-min Rain = 0
KME1 190915Z 33011KT 05/M02 A3012 RMK A01 T00521021  RH  059%=      5-min Rain = 0
KME1 190916Z 32013KT 05/M02 A3012 RMK A01 T00521020  RH  060%=      5-min Rain = 0
KME1 190917Z 34012G17KT 05/M02 A3012 RMK A01 T00521021  RH  059%=      5-min Rain = 0
KME1 190918Z 33010KT 05/M02 A3012 RMK A01 T00521021  RH  059%=      5-min Rain = 0
KME1 190919Z 33012KT 05/M02 A3013 RMK A01 T00521020  RH  060%=      5-min Rain = 0
KME1 190920Z 33016KT 05/M02 A3012 RMK A01 T00521021  RH  059%=      5-min Rain = 0
KME1 190921Z 34011KT 05/M02 A3013 RMK A01 T00521021  RH  059%=      5-min Rain = 0
KME1 190922Z 34014KT 05/M02 A3013 RMK A01 T00531020  RH  059%=      5-min Rain = 0
KME1 190923Z 34012KT 05/M02 A3013 RMK A01 T00531020  RH  059%=      5-min Rain = 0
KME1 190924Z 33015KT 05/M02 A3013 RMK A01 T00521020  RH  060%=      5-min Rain = 0
KME1 190925Z 33014KT 05/M02 A3013 RMK A01 T00521021  RH  059%=      5-min Rain = 0
KME1 190926Z 34016G23KT 05/M02 A3013 RMK A01 T00521021  RH  059%=      5-min Rain = 0
KME1 190927Z 34015KT 05/M02 A3013 RMK A01 T00521021  RH  059%=      5-min Rain = 0
KME1 190928Z 33013KT 05/M02 A3013 RMK A01 T00521022  RH  059%=      5-min Rain = 0
KME1 190929Z 33014KT 05/M02 A3013 RMK A01 T00521021  RH  059%=      5-min Rain = 0
KME1 190930Z 34017KT 05/M02 A3013 RMK A01 T00521022  RH  059%=      5-min Rain = 0
KME1 190931Z 34017G22KT 05/M02 A3014 RMK A01 T00521022  RH  059%=      5-min Rain = 0
KME1 190932Z 33020G25KT 05/M02 A3014 RMK A01 T00511023  RH  059%=      5-min Rain = 0
KME1 190933Z 33015KT 05/M02 A3014 RMK A01 T00511023  RH  059%=      5-min Rain = 0
KME1 190934Z 33016G22KT 05/M02 A3014 RMK A01 T00511023  RH  059%=      5-min Rain = 0
KME1 190935Z 33015KT 05/M02 A3014 RMK A01 T00501023  RH  059%=      5-min Rain = 0
KME1 190936Z 33012KT 05/M02 A3014 RMK A01 T00501023  RH  059%=      5-min Rain = 0
KME1 190937Z 33015G21KT 05/M02 A3014 RMK A01 T00501022  RH  060%=      5-min Rain = 0
KME1 190938Z 32020G25KT 05/M02 A3014 RMK A01 T00491023  RH  060%=      5-min Rain = 0
KME1 190939Z 33019G24KT 05/M02 A3014 RMK A01 T00491023  RH  059%=      5-min Rain = 0
KME1 190940Z 34018G25KT 05/M02 A3014 RMK A01 T00491023  RH  060%=      5-min Rain = 0
KME1 190941Z 33017G22KT 05/M02 A3015 RMK A01 T00481023  RH  060%=      5-min Rain = 0
KME1 190942Z 34021KT 05/M02 A3015 RMK A01 T00481023  RH  060%=      5-min Rain = 0
KME1 190943Z 34020G25KT 05/M02 A3015 RMK A01 T00481023  RH  060%=      5-min Rain = 0
KME1 190944Z 33019G24KT 05/M02 A3015 RMK A01 T00481023  RH  060%=      5-min Rain = 0
KME1 190945Z 34013G20KT 05/M02 A3015 RMK A01 T00481023  RH  060%=      5-min Rain = 0
KME1 190946Z 33015G22KT 05/M02 A3015 RMK A01 T00481022  RH  061%=      5-min Rain = 0
KME1 190947Z 33017G24KT 05/M02 A3015 RMK A01 T00471023  RH  060%=      5-min Rain = 0
KME1 190948Z 34015KT 05/M02 A3015 RMK A01 T00481023  RH  060%=      5-min Rain = 0
KME1 190949Z 34016G21KT 05/M02 A3015 RMK A01 T00471023  RH  060%=      5-min Rain = 0
KME1 190950Z 33016G22KT 05/M02 A3015 RMK A01 T00471023  RH  061%=      5-min Rain = 0
KME1 190951Z 33013KT 05/M02 A3015 RMK A01 T00471023  RH  061%=      5-min Rain = 0
KME1 190952Z 33012KT 05/M02 A3015 RMK A01 T00471022  RH  061%=      5-min Rain = 0
KME1 190953Z 33015G20KT 05/M02 A3015 RMK A01 T00471022  RH  061%=      5-min Rain = 0
KME1 190954Z 33017G24KT 05/M02 A3016 RMK A01 T00461023  RH  061%=      5-min Rain = 0
KME1 190955Z 32018G23KT 05/M02 A3016 RMK A01 T00471023  RH  061%=      5-min Rain = 0
KME1 190956Z 33020KT 05/M02 A3016 RMK A01 T00471023  RH  060%=      5-min Rain = 0
KME1 190957Z 33017G22KT 05/M02 A3016 RMK A01 T00461024  RH  060%=      5-min Rain = 0
KME1 190958Z 34020KT 05/M02 A3016 RMK A01 T00461024  RH  060%=      5-min Rain = 0
KME1 190959Z 34018G26KT 05/M02 A3016 RMK A01 T00461024  RH  061%=      5-min Rain = 0
KME1 191000Z 34018KT 05/M02 A3016 RMK A01 T00461024  RH  060%=      5-min Rain = 0
KME1 191001Z 33015KT 05/M02 A3016 RMK A01 T00451024  RH  061%=      5-min Rain = 0
KME1 191002Z 33014KT 04/M02 A3016 RMK A01 T00441024  RH  061%=      5-min Rain = 0
KME1 191003Z 33012KT 04/M02 A3016 RMK A01 T00441024  RH  061%=      5-min Rain = 0
KME1 191004Z 34012KT 04/M02 A3016 RMK A01 T00431024  RH  062%=      5-min Rain = 0
KME1 191005Z 34012KT 04/M02 A3016 RMK A01 T00431024  RH  062%=      5-min Rain = 0
KME1 191006Z 34014G19KT 04/M02 A3016 RMK A01 T00421024  RH  062%=      5-min Rain = 0
KME1 191007Z 34014G19KT 04/M02 A3016 RMK A01 T00421024  RH  062%=      5-min Rain = 0
KME1 191008Z 33015KT 04/M02 A3016 RMK A01 T00421024  RH  062%=      5-min Rain = 0
KME1 191009Z 34015KT 04/M02 A3016 RMK A01 T00421024  RH  062%=      5-min Rain = 0
KME1 191010Z 34015KT 04/M02 A3016 RMK A01 T00421024  RH  062%=      5-min Rain = 0
KME1 191011Z 33018G26KT 04/M02 A3016 RMK A01 T00411024  RH  062%=      5-min Rain = 0
KME1 191012Z 34019KT 04/M02 A3016 RMK A01 T00411024  RH  062%=      5-min Rain = 0
KME1 191013Z 33017KT 04/M03 A3016 RMK A01 T00411025  RH  062%=      5-min Rain = 0
KME1 191014Z 33018KT 04/M02 A3016 RMK A01 T00421024  RH  062%=      5-min Rain = 0
KME1 191015Z 33019KT 04/M02 A3016 RMK A01 T00411024  RH  062%=      5-min Rain = 0
KME1 191016Z 34018KT 04/M02 A3016 RMK A01 T00421024  RH  062%=      5-min Rain = 0
KME1 191017Z 34016KT 04/M02 A3016 RMK A01 T00421024  RH  062%=      5-min Rain = 0
KME1 191018Z 34015KT 04/M02 A3016 RMK A01 T00411024  RH  062%=      5-min Rain = 0
KME1 191019Z 33012KT 04/M02 A3016 RMK A01 T00411024  RH  063%=      5-min Rain = 0
KME1 191020Z 34013KT 04/M02 A3016 RMK A01 T00401024  RH  063%=      5-min Rain = 0
KME1 191021Z 34013KT 04/M02 A3016 RMK A01 T00391024  RH  063%=      5-min Rain = 0
KME1 191022Z 34016KT 04/M02 A3016 RMK A01 T00391024  RH  064%=      5-min Rain = 0
KME1 191023Z 33015KT 04/M02 A3016 RMK A01 T00391023  RH  064%=      5-min Rain = 0
KME1 191024Z 34016KT 04/M02 A3016 RMK A01 T00391024  RH  064%=      5-min Rain = 0
KME1 191025Z 34015KT 04/M02 A3016 RMK A01 T00391024  RH  063%=      5-min Rain = 0
KME1 191026Z 34012G18KT 04/M02 A3016 RMK A01 T00391023  RH  064%=      5-min Rain = 0
KME1 191027Z 34015KT 04/M02 A3016 RMK A01 T00391023  RH  064%=      5-min Rain = 0
KME1 191028Z 34015KT 04/M02 A3016 RMK A01 T00391023  RH  064%=      5-min Rain = 0
KME1 191029Z 34015KT 04/M02 A3016 RMK A01 T00391023  RH  064%=      5-min Rain = 0
KME1 191030Z 34016KT 04/M02 A3016 RMK A01 T00391023  RH  064%=      5-min Rain = 0
KME1 191031Z 34012KT 04/M02 A3016 RMK A01 T00391023  RH  064%=      5-min Rain = 0
KME1 191032Z 34012KT 04/M02 A3016 RMK A01 T00391023  RH  064%=      5-min Rain = 0
KME1 191033Z 34013KT 04/M02 A3016 RMK A01 T00381023  RH  064%=      5-min Rain = 0
KME1 191034Z 33011KT 04/M02 A3016 RMK A01 T00381022  RH  065%=      5-min Rain = 0
KME1 191035Z 34009KT 04/M02 A3016 RMK A01 T00371022  RH  065%=      5-min Rain = 0
KME1 191036Z 34016KT 04/M02 A3016 RMK A01 T00371022  RH  065%=      5-min Rain = 0
KME1 191037Z 34016KT 04/M02 A3016 RMK A01 T00371022  RH  065%=      5-min Rain = 0
KME1 191038Z 34015KT 04/M02 A3016 RMK A01 T00391021  RH  065%=      5-min Rain = 0
KME1 191039Z 34015KT 04/M02 A3016 RMK A01 T00391021  RH  065%=      5-min Rain = 0
KME1 191040Z 34013KT 04/M02 A3016 RMK A01 T00401020  RH  065%=      5-min Rain = 0
KME1 191041Z 33014KT 04/M02 A3016 RMK A01 T00401020  RH  065%=      5-min Rain = 0
KME1 191042Z 34014KT 04/M02 A3016 RMK A01 T00401021  RH  065%=      5-min Rain = 0
KME1 191043Z 34017KT 04/M02 A3016 RMK A01 T00401020  RH  065%=      5-min Rain = 0
KME1 191044Z 34013KT 04/M02 A3016 RMK A01 T00401020  RH  065%=      5-min Rain = 0
KME1 191045Z 34014KT 04/M02 A3016 RMK A01 T00401020  RH  065%=      5-min Rain = 0
KME1 191046Z 33013KT 04/M02 A3016 RMK A01 T00401020  RH  065%=      5-min Rain = 0
KME1 191047Z 34014KT 04/M02 A3016 RMK A01 T00401019  RH  065%=      5-min Rain = 0
KME1 191048Z 34011KT 04/M02 A3016 RMK A01 T00391019  RH  066%=      5-min Rain = 0
KME1 191049Z 34014KT 04/M02 A3016 RMK A01 T00391019  RH  066%=      5-min Rain = 0
KME1 191050Z 33012KT 04/M02 A3016 RMK A01 T00391019  RH  066%=      5-min Rain = 0
KME1 191051Z 34013KT 04/M02 A3016 RMK A01 T00391019  RH  066%=      5-min Rain = 0
KME1 191052Z 34011KT 04/M02 A3016 RMK A01 T00391018  RH  066%=      5-min Rain = 0
KME1 191053Z 34010G15KT 04/M02 A3016 RMK A01 T00391018  RH  067%=      5-min Rain = 0
KME1 191054Z 34012KT 04/M02 A3016 RMK A01 T00381018  RH  067%=      5-min Rain = 0
KME1 191055Z 34012KT 04/M02 A3016 RMK A01 T00381018  RH  067%=      5-min Rain = 0
KME1 191056Z 33013KT 04/M02 A3016 RMK A01 T00381018  RH  067%=      5-min Rain = 0
KME1 191057Z 34012KT 04/M02 A3016 RMK A01 T00391017  RH  067%=      5-min Rain = 0
KME1 191058Z 33012KT 04/M02 A3016 RMK A01 T00391017  RH  067%=      5-min Rain = 0
KME1 191059Z 34010KT 04/M02 A3017 RMK A01 T00391017  RH  067%=      5-min Rain = 0
KME1 191100Z 34010KT 04/M02 A3016 RMK A01 T00391017  RH  067%=      5-min Rain = 0
KME1 191101Z 33009KT 04/M02 A3016 RMK A01 T00381017  RH  067%=      5-min Rain = 0
KME1 191102Z 33010KT 04/M02 A3016 RMK A01 T00381017  RH  068%=      5-min Rain = 0
KME1 191103Z 33012KT 04/M02 A3016 RMK A01 T00381016  RH  068%=      5-min Rain = 0
KME1 191104Z 33010KT 04/M02 A3016 RMK A01 T00381017  RH  068%=      5-min Rain = 0
KME1 191105Z 33009KT 04/M02 A3017 RMK A01 T00381016  RH  068%=      5-min Rain = 0
KME1 191106Z 33009KT 04/M02 A3017 RMK A01 T00381017  RH  068%=      5-min Rain = 0
KME1 191107Z 32010KT 04/M02 A3017 RMK A01 T00371017  RH  068%=      5-min Rain = 0
KME1 191108Z 33008KT 04/M02 A3017 RMK A01 T00371016  RH  068%=      5-min Rain = 0
KME1 191109Z 33008KT 04/M02 A3017 RMK A01 T00371016  RH  068%=      5-min Rain = 0
KME1 191110Z 33009KT 04/M02 A3017 RMK A01 T00371016  RH  068%=      5-min Rain = 0
KME1 191111Z 33009G15KT 04/M02 A3017 RMK A01 T00371016  RH  069%=      5-min Rain = 0
KME1 191112Z 32008KT 04/M02 A3017 RMK A01 T00371016  RH  069%=      5-min Rain = 0
KME1 191113Z 32008KT 04/M02 A3017 RMK A01 T00361016  RH  069%=      5-min Rain = 0
KME1 191114Z 33008KT 04/M02 A3017 RMK A01 T00361016  RH  069%=      5-min Rain = 0
KME1 191115Z 32007KT 04/M02 A3017 RMK A01 T00351016  RH  069%=      5-min Rain = 0
KME1 191116Z 32008KT 04/M02 A3017 RMK A01 T00351015  RH  070%=      5-min Rain = 0
KME1 191117Z 33009KT 03/M02 A3017 RMK A01 T00341016  RH  070%=      5-min Rain = 0
KME1 191118Z 32008KT 04/M02 A3017 RMK A01 T00351016  RH  070%=      5-min Rain = 0
KME1 191119Z 32009KT 04/M02 A3017 RMK A01 T00351015  RH  070%=      5-min Rain = 0
KME1 191120Z 33008KT 04/M02 A3017 RMK A01 T00351015  RH  070%=      5-min Rain = 0
KME1 191121Z 32007KT 04/M02 A3017 RMK A01 T00351015  RH  070%=      5-min Rain = 0
KME1 191122Z 32008KT 03/M02 A3017 RMK A01 T00341015  RH  070%=      5-min Rain = 0
KME1 191123Z 32007KT 03/M02 A3017 RMK A01 T00331015  RH  071%=      5-min Rain = 0
KME1 191124Z 32009KT 03/M02 A3017 RMK A01 T00331015  RH  071%=      5-min Rain = 0
KME1 191125Z 32009KT 03/M02 A3017 RMK A01 T00331015  RH  071%=      5-min Rain = 0
KME1 191126Z 32010KT 03/M02 A3017 RMK A01 T00341015  RH  071%=      5-min Rain = 0
KME1 191127Z 32010KT 03/M02 A3017 RMK A01 T00341015  RH  071%=      5-min Rain = 0
KME1 191128Z 31009KT 03/M02 A3017 RMK A01 T00341015  RH  071%=      5-min Rain = 0
KME1 191129Z 32009KT 03/M02 A3017 RMK A01 T00341015  RH  071%=      5-min Rain = 0
KME1 191130Z 32008KT 03/M02 A3017 RMK A01 T00341015  RH  071%=      5-min Rain = 0
KME1 191131Z 31008KT 03/M01 A3017 RMK A01 T00341014  RH  071%=      5-min Rain = 0
KME1 191132Z 31010G15KT 03/M01 A3017 RMK A01 T00331014  RH  071%=      5-min Rain = 0
KME1 191133Z 32010KT 03/M01 A3017 RMK A01 T00331014  RH  071%=      5-min Rain = 0
KME1 191134Z 31009KT 03/M01 A3017 RMK A01 T00341014  RH  071%=      5-min Rain = 0
KME1 191135Z 31008KT 03/M02 A3017 RMK A01 T00341015  RH  071%=      5-min Rain = 0
KME1 191136Z 32009KT 03/M01 A3017 RMK A01 T00341014  RH  071%=      5-min Rain = 0
KME1 191137Z 32013G20KT 03/M02 A3017 RMK A01 T00341015  RH  071%=      5-min Rain = 0
KME1 191138Z 33014KT 04/M02 A3017 RMK A01 T00351015  RH  070%=      5-min Rain = 0
KME1 191139Z 31009G14KT 04/M02 A3017 RMK A01 T00361016  RH  069%=      5-min Rain = 0
KME1 191140Z 32013G18KT 04/M02 A3017 RMK A01 T00361016  RH  069%=      5-min Rain = 0
KME1 191141Z 32011KT 04/M02 A3017 RMK A01 T00361017  RH  068%=      5-min Rain = 0
KME1 191142Z 32009KT 04/M02 A3018 RMK A01 T00361017  RH  068%=      5-min Rain = 0
KME1 191143Z 32009KT 04/M02 A3018 RMK A01 T00361017  RH  068%=      5-min Rain = 0
KME1 191144Z 32009KT 04/M02 A3018 RMK A01 T00361017  RH  068%=      5-min Rain = 0
KME1 191145Z 32009KT 04/M02 A3018 RMK A01 T00361017  RH  068%=      5-min Rain = 0
KME1 191146Z 32010KT 04/M02 A3018 RMK A01 T00361018  RH  068%=      5-min Rain = 0
KME1 191147Z 32008KT 04/M02 A3018 RMK A01 T00351018  RH  068%=      5-min Rain = 0
KME1 191148Z 32006KT 04/M02 A3018 RMK A01 T00351018  RH  068%=      5-min Rain = 0
KME1 191149Z 32008KT 04/M02 A3018 RMK A01 T00351018  RH  068%=      5-min Rain = 0
KME1 191150Z 32009KT 04/M02 A3018 RMK A01 T00351018  RH  068%=      5-min Rain = 0
KME1 191151Z 31008KT 04/M02 A3019 RMK A01 T00351019  RH  068%=      5-min Rain = 0
KME1 191152Z 32008KT 04/M02 A3019 RMK A01 T00351019  RH  068%=      5-min Rain = 0
KME1 191153Z 32007KT 04/M02 A3019 RMK A01 T00351019  RH  068%=      5-min Rain = 0
KME1 191154Z 32006G11KT 04/M02 A3019 RMK A01 T00351018  RH  068%=      5-min Rain = 0
KME1 191155Z 32006KT 04/M02 A3019 RMK A01 T00351019  RH  068%=      5-min Rain = 0
KME1 191156Z 32006KT 03/M02 A3019 RMK A01 T00341019  RH  068%=      5-min Rain = 0
KME1 191157Z 32007KT 03/M02 A3019 RMK A01 T00341019  RH  068%=      5-min Rain = 0
KME1 191158Z 32007KT 03/M02 A3019 RMK A01 T00331019  RH  069%=      5-min Rain = 0
KME1 191159Z 32006KT 03/M02 A3019 RMK A01 T00331019  RH  069%=      5-min Rain = 0
KME1 191200Z 32006KT 03/M02 A3019 RMK A01 T00331019  RH  069%=      5-min Rain = 0
KME1 191201Z 31006KT 03/M02 A3019 RMK A01 T00321019  RH  069%=      5-min Rain = 0
KME1 191202Z 30005KT 03/M02 A3019 RMK A01 T00321019  RH  069%=      5-min Rain = 0
KME1 191203Z 31006KT 03/M02 A3019 RMK A01 T00331019  RH  069%=      5-min Rain = 0
KME1 191204Z 30006KT 03/M02 A302 RMK A01 T00321019  RH  069%=      5-min Rain = 0
KME1 191205Z 31004KT 03/M02 A302 RMK A01 T00311020  RH  069%=      5-min Rain = 0
KME1 191206Z 31006KT 03/M02 A302 RMK A01 T00311019  RH  069%=      5-min Rain = 0
KME1 191207Z 32007KT 03/M02 A302 RMK A01 T00311020  RH  069%=      5-min Rain = 0
KME1 191208Z 30006KT 03/M02 A302 RMK A01 T00311020  RH  069%=      5-min Rain = 0
KME1 191209Z 30005KT 03/M02 A302 RMK A01 T00311020  RH  069%=      5-min Rain = 0
KME1 191210Z 31007KT 03/M02 A302 RMK A01 T00311020  RH  069%=      5-min Rain = 0
KME1 191211Z 31010G15KT 03/M02 A302 RMK A01 T00321020  RH  069%=      5-min Rain = 0
KME1 191212Z 32009KT 03/M02 A302 RMK A01 T00331020  RH  068%=      5-min Rain = 0
KME1 191213Z 32008KT 03/M02 A302 RMK A01 T00341021  RH  067%=      5-min Rain = 0
KME1 191214Z 32008KT 03/M02 A302 RMK A01 T00341021  RH  067%=      5-min Rain = 0
KME1 191215Z 33009KT 03/M02 A302 RMK A01 T00341021  RH  067%=      5-min Rain = 0
KME1 191216Z 33011KT 03/M02 A302 RMK A01 T00341021  RH  067%=      5-min Rain = 0
KME1 191217Z 32008KT 03/M02 A302 RMK A01 T00341021  RH  067%=      5-min Rain = 0
KME1 191218Z 32006KT 03/M02 A302 RMK A01 T00341022  RH  067%=      5-min Rain = 0
KME1 191219Z 32007KT 03/M02 A302 RMK A01 T00341022  RH  067%=      5-min Rain = 0
KME1 191220Z 33008KT 03/M02 A302 RMK A01 T00331022  RH  067%=      5-min Rain = 0
KME1 191221Z 32009G14KT 03/M02 A302 RMK A01 T00331023  RH  067%=      5-min Rain = 0
KME1 191222Z 32011KT 03/M02 A302 RMK A01 T00341023  RH  066%=      5-min Rain = 0
KME1 191223Z 32011G17KT 03/M02 A302 RMK A01 T00341024  RH  066%=      5-min Rain = 0
KME1 191224Z 32013KT 04/M02 A302 RMK A01 T00351024  RH  066%=      5-min Rain = 0
KME1 191225Z 33016KT 04/M03 A3021 RMK A01 T00351025  RH  065%=      5-min Rain = 0
KME1 191226Z 33011KT 04/M03 A3021 RMK A01 T00361025  RH  064%=      5-min Rain = 0
KME1 191227Z 33008KT 04/M03 A3021 RMK A01 T00361025  RH  064%=      5-min Rain = 0
KME1 191228Z 33010KT 04/M03 A3021 RMK A01 T00351025  RH  065%=      5-min Rain = 0
KME1 191229Z 33016KT 03/M03 A3021 RMK A01 T00341026  RH  065%=      5-min Rain = 0
KME1 191230Z 33017KT 03/M03 A3021 RMK A01 T00341027  RH  064%=      5-min Rain = 0
KME1 191231Z 33012KT 04/M03 A3021 RMK A01 T00361028  RH  063%=      5-min Rain = 0
KME1 191232Z 32010G15KT 04/M03 A3021 RMK A01 T00361028  RH  063%=      5-min Rain = 0
KME1 191233Z 33010KT 04/M03 A3021 RMK A01 T00351028  RH  063%=      5-min Rain = 0
KME1 191234Z 33013KT 04/M03 A3021 RMK A01 T00351028  RH  063%=      5-min Rain = 0
KME1 191235Z 34014KT 04/M03 A3021 RMK A01 T00351029  RH  063%=      5-min Rain = 0
KME1 191236Z 33013KT 04/M03 A3021 RMK A01 T00351030  RH  063%=      5-min Rain = 0
KME1 191237Z 33012KT 04/M03 A3021 RMK A01 T00351030  RH  063%=      5-min Rain = 0
KME1 191238Z 33010KT 04/M03 A3021 RMK A01 T00351030  RH  063%=      5-min Rain = 0
KME1 191239Z 33011KT 03/M03 A3021 RMK A01 T00341030  RH  063%=      5-min Rain = 0
KME1 191240Z 33010KT 03/M03 A3021 RMK A01 T00341030  RH  063%=      5-min Rain = 0
KME1 191241Z 33010KT 03/M03 A3021 RMK A01 T00331030  RH  063%=      5-min Rain = 0
KME1 191242Z 33011KT 03/M03 A3021 RMK A01 T00331030  RH  063%=      5-min Rain = 0
KME1 191243Z 33011KT 03/M03 A3021 RMK A01 T00331030  RH  063%=      5-min Rain = 0
KME1 191244Z 33009KT 03/M03 A3021 RMK A01 T00331030  RH  063%=      5-min Rain = 0
KME1 191245Z 32010KT 03/M03 A3021 RMK A01 T00331030  RH  064%=      5-min Rain = 0
KME1 191246Z 33012KT 03/M03 A3022 RMK A01 T00321030  RH  064%=      5-min Rain = 0
KME1 191247Z 32014KT 03/M03 A3022 RMK A01 T00321030  RH  064%=      5-min Rain = 0
KME1 191248Z 33015KT 03/M03 A3022 RMK A01 T00321031  RH  063%=      5-min Rain = 0
KME1 191249Z 33016G21KT 03/M03 A3021 RMK A01 T00331032  RH  063%=      5-min Rain = 0
KME1 191250Z 32010G15KT 03/M03 A3022 RMK A01 T00341032  RH  062%=      5-min Rain = 0
KME1 191251Z 33013G21KT 03/M03 A3022 RMK A01 T00341032  RH  062%=      5-min Rain = 0
KME1 191252Z 33011KT 03/M03 A3022 RMK A01 T00331033  RH  062%=      5-min Rain = 0
KME1 191253Z 33015KT 03/M03 A3022 RMK A01 T00331034  RH  062%=      5-min Rain = 0
KME1 191254Z 33014G21KT 03/M03 A3022 RMK A01 T00341034  RH  061%=      5-min Rain = 0
KME1 191255Z 33017G22KT 03/M03 A3022 RMK A01 T00341034  RH  061%=      5-min Rain = 0
KME1 191256Z 33016KT 03/M04 A3022 RMK A01 T00341035  RH  061%=      5-min Rain = 0
KME1 191257Z 34014G19KT 03/M04 A3022 RMK A01 T00341035  RH  061%=      5-min Rain = 0
KME1 191258Z 34012KT 03/M04 A3022 RMK A01 T00341035  RH  061%=      5-min Rain = 0
KME1 191259Z 34013KT 03/M04 A3022 RMK A01 T00341035  RH  061%=      5-min Rain = 0
KME1 191300Z 34012KT 03/M04 A3023 RMK A01 T00331035  RH  061%=      5-min Rain = 0
KME1 191301Z 34015KT 03/M04 A3023 RMK A01 T00331036  RH  061%=      5-min Rain = 0
KME1 191302Z 34013G19KT 03/M04 A3023 RMK A01 T00331036  RH  061%=      5-min Rain = 0
KME1 191303Z 34012KT 03/M04 A3023 RMK A01 T00331036  RH  061%=      5-min Rain = 0
KME1 191304Z 33012G17KT 03/M04 A3023 RMK A01 T00331036  RH  061%=      5-min Rain = 0
KME1 191305Z 34012KT 03/M04 A3023 RMK A01 T00331036  RH  061%=      5-min Rain = 0
KME1 191306Z 34013G18KT 03/M04 A3023 RMK A01 T00321037  RH  061%=      5-min Rain = 0
KME1 191307Z 33016KT 03/M04 A3024 RMK A01 T00321037  RH  061%=      5-min Rain = 0
KME1 191308Z 33012KT 03/M04 A3024 RMK A01 T00321037  RH  060%=      5-min Rain = 0
KME1 191309Z 33012KT 03/M04 A3024 RMK A01 T00321037  RH  060%=      5-min Rain = 0
KME1 191310Z 34013KT 03/M04 A3024 RMK A01 T00321038  RH  060%=      5-min Rain = 0
KME1 191311Z 34014KT 03/M04 A3024 RMK A01 T00331038  RH  060%=      5-min Rain = 0
KME1 191312Z 34011KT 03/M04 A3024 RMK A01 T00331039  RH  059%=      5-min Rain = 0
KME1 191313Z 33014KT 03/M04 A3024 RMK A01 T00331038  RH  059%=      5-min Rain = 0
KME1 191314Z 32017KT 03/M04 A3024 RMK A01 T00331039  RH  059%=      5-min Rain = 0
KME1 191315Z 34011G16KT 03/M04 A3024 RMK A01 T00331039  RH  059%=      5-min Rain = 0
KME1 191316Z 34015KT 03/M04 A3024 RMK A01 T00331039  RH  059%=      5-min Rain = 0
KME1 191317Z 34014KT 03/M04 A3024 RMK A01 T00331040  RH  059%=      5-min Rain = 0
KME1 191318Z 34012KT 03/M04 A3024 RMK A01 T00331040  RH  059%=      5-min Rain = 0
KME1 191319Z 33010KT 03/M04 A3025 RMK A01 T00331040  RH  059%=      5-min Rain = 0
KME1 191320Z 34010KT 03/M04 A3025 RMK A01 T00321040  RH  059%=      5-min Rain = 0
KME1 191321Z 34010G15KT 03/M04 A3025 RMK A01 T00321040  RH  059%=      5-min Rain = 0
KME1 191322Z 35012KT 03/M04 A3025 RMK A01 T00311040  RH  059%=      5-min Rain = 0
KME1 191323Z 34011KT 03/M04 A3025 RMK A01 T00311040  RH  060%=      5-min Rain = 0
KME1 191324Z 34013KT 03/M04 A3025 RMK A01 T00311041  RH  059%=      5-min Rain = 0
KME1 191325Z 34011KT 03/M04 A3025 RMK A01 T00311041  RH  059%=      5-min Rain = 0
KME1 191326Z 35009KT 03/M04 A3025 RMK A01 T00311041  RH  059%=      5-min Rain = 0
KME1 191327Z 34011KT 03/M04 A3025 RMK A01 T00311040  RH  059%=      5-min Rain = 0
KME1 191328Z 34008KT 03/M04 A3025 RMK A01 T00301041  RH  059%=      5-min Rain = 0
KME1 191329Z 35009KT 03/M04 A3025 RMK A01 T00301041  RH  060%=      5-min Rain = 0
KME1 191330Z 35008KT 03/M04 A3025 RMK A01 T00301040  RH  060%=      5-min Rain = 0
KME1 191331Z 34009KT 03/M04 A3025 RMK A01 T00301040  RH  060%=      5-min Rain = 0
KME1 191332Z 34009KT 03/M04 A3025 RMK A01 T00301040  RH  060%=      5-min Rain = 0
KME1 191333Z 34009KT 03/M04 A3026 RMK A01 T00301040  RH  060%=      5-min Rain = 0
KME1 191334Z 34009KT 03/M04 A3026 RMK A01 T00301041  RH  060%=      5-min Rain = 0
KME1 191335Z 34010KT 03/M04 A3026 RMK A01 T00291041  RH  060%=      5-min Rain = 0
KME1 191336Z 34007KT 03/M04 A3026 RMK A01 T00301040  RH  060%=      5-min Rain = 0
KME1 191337Z 34005KT 03/M04 A3026 RMK A01 T00291040  RH  060%=      5-min Rain = 0
KME1 191338Z 33006KT 03/M04 A3026 RMK A01 T00281040  RH  061%=      5-min Rain = 0
KME1 191339Z 33007KT 03/M04 A3026 RMK A01 T00281040  RH  061%=      5-min Rain = 0
KME1 191340Z 33006KT 03/M04 A3026 RMK A01 T00281040  RH  061%=      5-min Rain = 0
KME1 191341Z 33006KT 03/M04 A3026 RMK A01 T00271040  RH  061%=      5-min Rain = 0
KME1 191342Z 32005KT 03/M04 A3026 RMK A01 T00271041  RH  061%=      5-min Rain = 0
KME1 191343Z 31005KT 03/M04 A3026 RMK A01 T00271040  RH  061%=      5-min Rain = 0
KME1 191344Z 32005KT 03/M04 A3026 RMK A01 T00271040  RH  061%=      5-min Rain = 0
KME1 191345Z 32005KT 03/M04 A3026 RMK A01 T00261040  RH  061%=      5-min Rain = 0
KME1 191346Z 32006KT 03/M04 A3026 RMK A01 T00261040  RH  062%=      5-min Rain = 0
KME1 191347Z 31005KT 03/M04 A3026 RMK A01 T00261040  RH  062%=      5-min Rain = 0
KME1 191348Z 31003KT 03/M04 A3026 RMK A01 T00261040  RH  062%=      5-min Rain = 0
KME1 191349Z 31004KT 03/M04 A3027 RMK A01 T00261040  RH  062%=      5-min Rain = 0
KME1 191350Z 31004KT 03/M04 A3027 RMK A01 T00251040  RH  062%=      5-min Rain = 0
KME1 191351Z 30003KT 03/M04 A3027 RMK A01 T00261040  RH  062%=      5-min Rain = 0
KME1 191352Z 32003KT 03/M04 A3027 RMK A01 T00251040  RH  062%=      5-min Rain = 0
KME1 191353Z 30001KT 03/M04 A3027 RMK A01 T00261040  RH  062%=      5-min Rain = 0
KME1 191354Z 30002KT 03/M04 A3027 RMK A01 T00251040  RH  062%=      5-min Rain = 0
KME1 191355Z 29004KT 03/M04 A3027 RMK A01 T00261039  RH  062%=      5-min Rain = 0
KME1 191356Z 29005KT 03/M04 A3027 RMK A01 T00261038  RH  063%=      5-min Rain = 0
KME1 191357Z 30004KT 03/M04 A3027 RMK A01 T00261038  RH  063%=      5-min Rain = 0
KME1 191358Z 29004KT 03/M04 A3027 RMK A01 T00261037  RH  063%=      5-min Rain = 0
KME1 191359Z 31008KT 03/M04 A3027 RMK A01 T00271037  RH  063%=      5-min Rain = 0
KME1 191400Z 30006KT 03/M04 A3027 RMK A01 T00281036  RH  063%=      5-min Rain = 0
KME1 191401Z 29006KT 03/M04 A3027 RMK A01 T00281036  RH  063%=      5-min Rain = 0
KME1 191402Z 30007KT 03/M04 A3027 RMK A01 T00281036  RH  063%=      5-min Rain = 0
KME1 191403Z 31006KT 03/M04 A3028 RMK A01 T00291035  RH  063%=      5-min Rain = 0
KME1 191404Z 31007KT 03/M04 A3028 RMK A01 T00291035  RH  063%=      5-min Rain = 0
KME1 191405Z 31006KT 03/M04 A3028 RMK A01 T00291035  RH  063%=      5-min Rain = 0
KME1 191406Z 31008KT 03/M04 A3028 RMK A01 T00291035  RH  063%=      5-min Rain = 0
KME1 191407Z 32008KT 03/M03 A3028 RMK A01 T00301034  RH  063%=      5-min Rain = 0
KME1 191408Z 30008KT 03/M04 A3028 RMK A01 T00301035  RH  063%=      5-min Rain = 0
KME1 191409Z 31007KT 03/M04 A3028 RMK A01 T00301035  RH  063%=      5-min Rain = 0
KME1 191410Z 32010KT 03/M04 A3028 RMK A01 T00301035  RH  063%=      5-min Rain = 0
KME1 191411Z 33011KT 03/M04 A3028 RMK A01 T00311035  RH  062%=      5-min Rain = 0
KME1 191412Z 33011KT 03/M04 A3028 RMK A01 T00311035  RH  062%=      5-min Rain = 0
KME1 191413Z 33009G14KT 03/M04 A3028 RMK A01 T00321036  RH  061%=      5-min Rain = 0
KME1 191414Z 33010G16KT 03/M04 A3028 RMK A01 T00321036  RH  061%=      5-min Rain = 0
KME1 191415Z 33012KT 03/M04 A3028 RMK A01 T00331036  RH  061%=      5-min Rain = 0
KME1 191416Z 32013KT 03/M04 A3028 RMK A01 T00321037  RH  060%=      5-min Rain = 0
KME1 191417Z 33012G17KT 03/M04 A3028 RMK A01 T00331037  RH  060%=      5-min Rain = 0
KME1 191418Z 33011KT 03/M04 A3028 RMK A01 T00341037  RH  060%=      5-min Rain = 0
KME1 191419Z 33011KT 03/M04 A3028 RMK A01 T00331038  RH  060%=      5-min Rain = 0
KME1 191420Z 34011KT 03/M04 A3029 RMK A01 T00341037  RH  060%=      5-min Rain = 0
KME1 191421Z 33013KT 03/M04 A3029 RMK A01 T00341037  RH  060%=      5-min Rain = 0
KME1 191422Z 33010G15KT 03/M04 A3029 RMK A01 T00341038  RH  059%=      5-min Rain = 0
KME1 191423Z 33011KT 03/M04 A3029 RMK A01 T00341038  RH  059%=      5-min Rain = 0
KME1 191424Z 34011KT 04/M04 A3029 RMK A01 T00351037  RH  059%=      5-min Rain = 0
KME1 191425Z 32013KT 04/M04 A3029 RMK A01 T00351037  RH  059%=      5-min Rain = 0
KME1 191426Z 33015KT 04/M04 A3029 RMK A01 T00351038  RH  059%=      5-min Rain = 0
KME1 191427Z 33013KT 04/M04 A3029 RMK A01 T00351038  RH  058%=      5-min Rain = 0
KME1 191428Z 33012G17KT 04/M04 A3029 RMK A01 T00361038  RH  058%=      5-min Rain = 0
KME1 191429Z 32013KT 04/M04 A3029 RMK A01 T00361039  RH  058%=      5-min Rain = 0
KME1 191430Z 33011G17KT 04/M04 A3029 RMK A01 T00361039  RH  058%=      5-min Rain = 0
KME1 191431Z 32012KT 04/M04 A3029 RMK A01 T00361038  RH  058%=      5-min Rain = 0
KME1 191432Z 33011KT 04/M04 A3029 RMK A01 T00371039  RH  058%=      5-min Rain = 0
KME1 191433Z 33011KT 04/M04 A3029 RMK A01 T00371039  RH  058%=      5-min Rain = 0
KME1 191434Z 33009KT 04/M04 A3029 RMK A01 T00371039  RH  058%=      5-min Rain = 0
KME1 191435Z 33011KT 04/M04 A3029 RMK A01 T00371038  RH  058%=      5-min Rain = 0
KME1 191436Z 33007G12KT 04/M04 A3029 RMK A01 T00381039  RH  057%=      5-min Rain = 0
KME1 191437Z 33009KT 04/M04 A3029 RMK A01 T00381038  RH  058%=      5-min Rain = 0
KME1 191438Z 33009KT 04/M04 A3029 RMK A01 T00381038  RH  058%=      5-min Rain = 0
KME1 191439Z 32011G16KT 04/M04 A3029 RMK A01 T00381038  RH  057%=      5-min Rain = 0
KME1 191440Z 32012G17KT 04/M04 A303 RMK A01 T00381039  RH  057%=      5-min Rain = 0
KME1 191441Z 33016G21KT 04/M04 A303 RMK A01 T00381040  RH  057%=      5-min Rain = 0
KME1 191442Z 34010KT 04/M04 A303 RMK A01 T00381040  RH  057%=      5-min Rain = 0
KME1 191443Z 33011KT 04/M04 A303 RMK A01 T00391039  RH  057%=      5-min Rain = 0
KME1 191444Z 33009G14KT 04/M04 A303 RMK A01 T00391039  RH  057%=      5-min Rain = 0
KME1 191445Z 33012KT 04/M04 A303 RMK A01 T00401037  RH  057%=      5-min Rain = 0
KME1 191446Z 33014G21KT 04/M04 A303 RMK A01 T00401039  RH  056%=      5-min Rain = 0
KME1 191447Z 33017G23KT 04/M04 A303 RMK A01 T00401041  RH  056%=      5-min Rain = 0
KME1 191448Z 33012KT 04/M04 A303 RMK A01 T00401042  RH  055%=      5-min Rain = 0
KME1 191449Z 33012KT 04/M04 A303 RMK A01 T00401041  RH  056%=      5-min Rain = 0
KME1 191450Z 33012G17KT 04/M04 A303 RMK A01 T00411041  RH  055%=      5-min Rain = 0
KME1 191451Z 33015G20KT 04/M04 A3031 RMK A01 T00411041  RH  055%=      5-min Rain = 0
KME1 191452Z 34013KT 04/M04 A3031 RMK A01 T00411042  RH  055%=      5-min Rain = 0
KME1 191453Z 34012KT 04/M04 A3031 RMK A01 T00411042  RH  055%=      5-min Rain = 0
KME1 191454Z 33011KT 04/M04 A3031 RMK A01 T00411042  RH  055%=      5-min Rain = 0
KME1 191455Z 34014KT 04/M04 A3031 RMK A01 T00411042  RH  055%=      5-min Rain = 0
KME1 191456Z 34012KT 04/M04 A3031 RMK A01 T00421043  RH  054%=      5-min Rain = 0
KME1 191457Z 34014KT 04/M04 A3031 RMK A01 T00421042  RH  054%=      5-min Rain = 0
KME1 191458Z 33014G20KT 04/M04 A3031 RMK A01 T00421043  RH  054%=      5-min Rain = 0
KME1 191459Z 33014G20KT 04/M04 A3031 RMK A01 T00421044  RH  054%=      5-min Rain = 0
KME1 191500Z 34013G18KT 04/M04 A3031 RMK A01 T00421044  RH  053%=      5-min Rain = 0
KME1 191501Z 34014KT 04/M04 A3031 RMK A01 T00421044  RH  053%=      5-min Rain = 0
KME1 191502Z 34014G19KT 04/M04 A3031 RMK A01 T00431043  RH  054%=      5-min Rain = 0
KME1 191503Z 34015KT 04/M04 A3031 RMK A01 T00431043  RH  053%=      5-min Rain = 0
KME1 191504Z 34013KT 04/M04 A3031 RMK A01 T00431043  RH  053%=      5-min Rain = 0
KME1 191505Z 35015G20KT 04/M04 A3031 RMK A01 T00431044  RH  053%=      5-min Rain = 0
KME1 191506Z 34014G19KT 04/M04 A3031 RMK A01 T00441044  RH  053%=      5-min Rain = 0
KME1 191507Z 35009KT 04/M04 A3031 RMK A01 T00431043  RH  053%=      5-min Rain = 0
KME1 191508Z 34008KT 05/M04 A3031 RMK A01 T00451040  RH  054%=      5-min Rain = 0
KME1 191509Z 34015G21KT 05/M04 A3031 RMK A01 T00471040  RH  053%=      5-min Rain = 0
KME1 191510Z 33016G21KT 05/M04 A3031 RMK A01 T00461043  RH  052%=      5-min Rain = 0
KME1 191511Z 33017G22KT 05/M04 A3031 RMK A01 T00461043  RH  052%=      5-min Rain = 0
KME1 191512Z 33014KT 05/M04 A3031 RMK A01 T00451043  RH  053%=      5-min Rain = 0
KME1 191513Z 34015KT 05/M04 A3031 RMK A01 T00461042  RH  053%=      5-min Rain = 0
KME1 191514Z 34013KT 05/M04 A3031 RMK A01 T00461042  RH  053%=      5-min Rain = 0
KME1 191515Z 34014KT 05/M04 A3031 RMK A01 T00461042  RH  053%=      5-min Rain = 0
KME1 191516Z 34014G19KT 05/M04 A3031 RMK A01 T00471042  RH  053%=      5-min Rain = 0
KME1 191517Z 34012KT 05/M04 A3031 RMK A01 T00471041  RH  053%=      5-min Rain = 0
KME1 191518Z 34013KT 05/M04 A3031 RMK A01 T00481039  RH  053%=      5-min Rain = 0
KME1 191519Z 34014KT 05/M04 A3031 RMK A01 T00491040  RH  052%=      5-min Rain = 0
KME1 191520Z 34012KT 05/M04 A3031 RMK A01 T00501040  RH  052%=      5-min Rain = 0
KME1 191521Z 34011G17KT 05/M04 A3031 RMK A01 T00511038  RH  053%=      5-min Rain = 0
KME1 191522Z 34012KT 05/M04 A3031 RMK A01 T00521038  RH  052%=      5-min Rain = 0
KME1 191523Z 34012KT 05/M04 A3031 RMK A01 T00521039  RH  052%=      5-min Rain = 0
KME1 191524Z 34011KT 05/M04 A3031 RMK A01 T00521039  RH  052%=      5-min Rain = 0
KME1 191525Z 34014KT 05/M04 A3031 RMK A01 T00521039  RH  052%=      5-min Rain = 0
KME1 191526Z 33013G18KT 05/M04 A3031 RMK A01 T00521040  RH  051%=      5-min Rain = 0
KME1 191527Z 33014KT 05/M04 A3031 RMK A01 T00521040  RH  051%=      5-min Rain = 0
KME1 191528Z 33013KT 05/M04 A3032 RMK A01 T00521041  RH  051%=      5-min Rain = 0
KME1 191529Z 33013KT 05/M04 A3032 RMK A01 T00531040  RH  051%=      5-min Rain = 0
KME1 191530Z 33010G15KT 05/M04 A3032 RMK A01 T00531040  RH  051%=      5-min Rain = 0
KME1 191531Z 33013G20KT 05/M04 A3032 RMK A01 T00541038  RH  051%=      5-min Rain = 0
KME1 191532Z 34013G18KT 06/M04 A3032 RMK A01 T00551039  RH  051%=      5-min Rain = 0
KME1 191533Z 34013G19KT 06/M04 A3032 RMK A01 T00551039  RH  051%=      5-min Rain = 0
KME1 191534Z 34016KT 06/M04 A3032 RMK A01 T00551040  RH  050%=      5-min Rain = 0
KME1 191535Z 33016G22KT 05/M04 A3032 RMK A01 T00541040  RH  050%=      5-min Rain = 0
KME1 191536Z 34016KT 05/M04 A3033 RMK A01 T00541042  RH  050%=      5-min Rain = 0
KME1 191537Z 34014KT 05/M04 A3033 RMK A01 T00541041  RH  050%=      5-min Rain = 0
KME1 191538Z 34016KT 06/M04 A3033 RMK A01 T00551040  RH  050%=      5-min Rain = 0
KME1 191539Z 34013KT 06/M04 A3033 RMK A01 T00551040  RH  050%=      5-min Rain = 0
KME1 191540Z 34014KT 06/M04 A3033 RMK A01 T00551040  RH  050%=      5-min Rain = 0
KME1 191541Z 33009G14KT 06/M04 A3033 RMK A01 T00561039  RH  050%=      5-min Rain = 0
KME1 191542Z 33011G16KT 06/M04 A3033 RMK A01 T00581036  RH  051%=      5-min Rain = 0
KME1 191543Z 33015KT 06/M04 A3033 RMK A01 T00591038  RH  050%=      5-min Rain = 0
KME1 191544Z 33014G20KT 06/M04 A3033 RMK A01 T00591040  RH  049%=      5-min Rain = 0
KME1 191545Z 33013G18KT 06/M04 A3033 RMK A01 T00591040  RH  049%=      5-min Rain = 0
KME1 191546Z 34010KT 06/M04 A3033 RMK A01 T00591039  RH  049%=      5-min Rain = 0
KME1 191547Z 35015KT 06/M04 A3033 RMK A01 T00601038  RH  049%=      5-min Rain = 0
KME1 191548Z 35017KT 06/M04 A3033 RMK A01 T00601040  RH  049%=      5-min Rain = 0
KME1 191549Z 35017KT 06/M04 A3033 RMK A01 T00601041  RH  048%=      5-min Rain = 0
KME1 191550Z 35015KT 06/M04 A3034 RMK A01 T00591042  RH  048%=      5-min Rain = 0
KME1 191551Z 34017G22KT 06/M04 A3034 RMK A01 T00591041  RH  049%=      5-min Rain = 0
KME1 191552Z 34015KT 06/M04 A3034 RMK A01 T00601042  RH  048%=      5-min Rain = 0
KME1 191553Z 33013KT 06/M04 A3034 RMK A01 T00601041  RH  048%=      5-min Rain = 0
KME1 191554Z 33012G18KT 06/M04 A3034 RMK A01 T00601041  RH  048%=      5-min Rain = 0
KME1 191555Z 33014KT 06/M04 A3034 RMK A01 T00601041  RH  048%=      5-min Rain = 0
KME1 191556Z 34012G17KT 06/M04 A3034 RMK A01 T00611041  RH  048%=      5-min Rain = 0
KME1 191557Z 32016KT 06/M04 A3033 RMK A01 T00621039  RH  048%=      5-min Rain = 0
KME1 191558Z 34014KT 06/M04 A3034 RMK A01 T00621039  RH  048%=      5-min Rain = 0
KME1 191559Z 35016KT 06/M04 A3034 RMK A01 T00631039  RH  048%=      5-min Rain = 0
KME1 191600Z 34016KT 06/M04 A3034 RMK A01 T00631041  RH  047%=      5-min Rain = 0
KME1 191601Z 33015KT 06/M04 A3034 RMK A01 T00631040  RH  048%=      5-min Rain = 0
KME1 191602Z 34016KT 06/M04 A3034 RMK A01 T00631041  RH  047%=      5-min Rain = 0
KME1 191603Z 35019KT 06/M04 A3034 RMK A01 T00631042  RH  047%=      5-min Rain = 0
KME1 191604Z 35017KT 06/M04 A3034 RMK A01 T00631042  RH  047%=      5-min Rain = 0
KME1 191605Z 34015KT 06/M04 A3034 RMK A01 T00621040  RH  048%=      5-min Rain = 0
KME1 191606Z 34014KT 06/M04 A3034 RMK A01 T00641038  RH  048%=      5-min Rain = 0
KME1 191607Z 35016KT 07/M04 A3034 RMK A01 T00651039  RH  047%=      5-min Rain = 0
KME1 191608Z 35015KT 07/M04 A3034 RMK A01 T00651040  RH  047%=      5-min Rain = 0
KME1 191609Z 34014KT 07/M04 A3034 RMK A01 T00651039  RH  047%=      5-min Rain = 0
KME1 191610Z 34013KT 07/M04 A3034 RMK A01 T00661039  RH  047%=      5-min Rain = 0
KME1 191611Z 35015KT 07/M04 A3034 RMK A01 T00671039  RH  047%=      5-min Rain = 0
KME1 191612Z 34016KT 07/M04 A3034 RMK A01 T00681038  RH  047%=      5-min Rain = 0
KME1 191613Z 34016G21KT 07/M04 A3034 RMK A01 T00681039  RH  046%=      5-min Rain = 0
KME1 191614Z 33014G19KT 07/M04 A3034 RMK A01 T00681039  RH  046%=      5-min Rain = 0
KME1 191615Z 34015KT 07/M04 A3034 RMK A01 T00681039  RH  046%=      5-min Rain = 0
KME1 191616Z 34015KT 07/M04 A3034 RMK A01 T00681038  RH  047%=      5-min Rain = 0
KME1 191617Z 35014KT 07/M04 A3034 RMK A01 T00691038  RH  046%=      5-min Rain = 0
KME1 191618Z 34013KT 07/M04 A3034 RMK A01 T00701037  RH  047%=      5-min Rain = 0
KME1 191619Z 33017G22KT 07/M04 A3034 RMK A01 T00721036  RH  046%=      5-min Rain = 0
KME1 191620Z 33015G20KT 07/M04 A3034 RMK A01 T00721037  RH  046%=      5-min Rain = 0
KME1 191621Z 32017KT 07/M04 A3034 RMK A01 T00721038  RH  046%=      5-min Rain = 0
KME1 191622Z 32016KT 07/M04 A3034 RMK A01 T00711039  RH  045%=      5-min Rain = 0
KME1 191623Z 32011G18KT 07/M04 A3034 RMK A01 T00711039  RH  046%=      5-min Rain = 0
KME1 191624Z 34009KT 07/M03 A3034 RMK A01 T00731034  RH  046%=      5-min Rain = 0
KME1 191625Z 35013G19KT 08/M03 A3034 RMK A01 T00771031  RH  046%=      5-min Rain = 0
KME1 191626Z 35014KT 08/M04 A3034 RMK A01 T00771036  RH  045%=      5-min Rain = 0
KME1 191627Z 35016KT 08/M04 A3034 RMK A01 T00771037  RH  044%=      5-min Rain = 0
KME1 191628Z 35017G23KT 08/M04 A3034 RMK A01 T00751038  RH  044%=      5-min Rain = 0
KME1 191629Z 34018KT 08/M04 A3034 RMK A01 T00751039  RH  044%=      5-min Rain = 0
KME1 191630Z 35012G17KT 08/M04 A3034 RMK A01 T00751037  RH  045%=      5-min Rain = 0
KME1 191631Z 35018KT 08/M04 A3034 RMK A01 T00761036  RH  045%=      5-min Rain = 0
KME1 191632Z 33015KT 08/M04 A3034 RMK A01 T00771038  RH  044%=      5-min Rain = 0
KME1 191633Z 34015KT 08/M04 A3034 RMK A01 T00761039  RH  044%=      5-min Rain = 0
KME1 191634Z 33015KT 08/M04 A3034 RMK A01 T00761039  RH  044%=      5-min Rain = 0
KME1 191635Z 33014KT 08/M04 A3034 RMK A01 T00771037  RH  044%=      5-min Rain = 0
KME1 191636Z 34016G21KT 08/M04 A3034 RMK A01 T00781037  RH  044%=      5-min Rain = 0
KME1 191637Z 35013G18KT 08/M04 A3034 RMK A01 T00791037  RH  044%=      5-min Rain = 0
KME1 191638Z 35017KT 08/M04 A3034 RMK A01 T00801036  RH  044%=      5-min Rain = 0
KME1 191639Z 35015KT 08/M04 A3034 RMK A01 T00791039  RH  043%=      5-min Rain = 0
KME1 191640Z 34014G19KT 08/M04 A3034 RMK A01 T00791037  RH  043%=      5-min Rain = 0
KME1 191641Z 34013KT 08/M04 A3034 RMK A01 T00801037  RH  044%=      5-min Rain = 0
KME1 191642Z 34013KT 08/M04 A3034 RMK A01 T00811035  RH  044%=      5-min Rain = 0
KME1 191643Z 34012G18KT 08/M03 A3034 RMK A01 T00821034  RH  044%=      5-min Rain = 0
KME1 191644Z 34014G22KT 08/M03 A3034 RMK A01 T00841033  RH  043%=      5-min Rain = 0
KME1 191645Z 33019KT 08/M04 A3034 RMK A01 T00841037  RH  042%=      5-min Rain = 0
KME1 191646Z 35017G22KT 08/M04 A3034 RMK A01 T00801041  RH  042%=      5-min Rain = 0
KME1 191647Z 36020KT 08/M04 A3034 RMK A01 T00801039  RH  043%=      5-min Rain = 0
KME1 191648Z 35019KT 08/M04 A3034 RMK A01 T00801038  RH  043%=      5-min Rain = 0
KME1 191649Z 34017G22KT 08/M04 A3034 RMK A01 T00811039  RH  042%=      5-min Rain = 0
KME1 191650Z 35015KT 08/M04 A3034 RMK A01 T00801039  RH  043%=      5-min Rain = 0
KME1 191651Z 34016KT 08/M04 A3034 RMK A01 T00801039  RH  043%=      5-min Rain = 0
KME1 191652Z 34013KT 08/M04 A3034 RMK A01 T00801036  RH  044%=      5-min Rain = 0
KME1 191653Z 34019G24KT 08/M04 A3034 RMK A01 T00831037  RH  043%=      5-min Rain = 0
KME1 191654Z 34020KT 08/M04 A3034 RMK A01 T00811042  RH  042%=      5-min Rain = 0
KME1 191655Z 33017KT 08/M04 A3034 RMK A01 T00801040  RH  042%=      5-min Rain = 0
KME1 191656Z 34018KT 08/M04 A3034 RMK A01 T00811039  RH  042%=      5-min Rain = 0
KME1 191657Z 33018G25KT 08/M04 A3034 RMK A01 T00811040  RH  042%=      5-min Rain = 0
KME1 191658Z 34019KT 08/M04 A3034 RMK A01 T00811041  RH  042%=      5-min Rain = 0
KME1 191659Z 33014G19KT 08/M04 A3034 RMK A01 T00791041  RH  042%=      5-min Rain = 0
KME1 191700Z 34018KT 08/M04 A3034 RMK A01 T00811039  RH  043%=      5-min Rain = 0
KME1 191701Z 34015G20KT 08/M04 A3034 RMK A01 T00821040  RH  042%=      5-min Rain = 0
KME1 191702Z 34019KT 08/M04 A3034 RMK A01 T00821039  RH  042%=      5-min Rain = 0
KME1 191703Z 35017KT 08/M04 A3034 RMK A01 T00811039  RH  042%=      5-min Rain = 0
KME1 191704Z 35018KT 08/M04 A3034 RMK A01 T00811037  RH  043%=      5-min Rain = 0
KME1 191705Z 33016G22KT 08/M04 A3034 RMK A01 T00821038  RH  043%=      5-min Rain = 0
KME1 191706Z 34017KT 08/M04 A3034 RMK A01 T00831037  RH  043%=      5-min Rain = 0
KME1 191707Z 35019KT 08/M04 A3034 RMK A01 T00841037  RH  042%=      5-min Rain = 0
KME1 191708Z 34017KT 08/M04 A3034 RMK A01 T00841038  RH  042%=      5-min Rain = 0
KME1 191709Z 35019KT 08/M04 A3034 RMK A01 T00841037  RH  042%=      5-min Rain = 0
KME1 191710Z 34019KT 08/M04 A3034 RMK A01 T00841038  RH  042%=      5-min Rain = 0
KME1 191711Z 34016G22KT 08/M04 A3034 RMK A01 T00831038  RH  042%=      5-min Rain = 0
KME1 191712Z 34017G23KT 09/M04 A3034 RMK A01 T00851036  RH  042%=      5-min Rain = 0
KME1 191713Z 33015G20KT 09/M04 A3034 RMK A01 T00861036  RH  042%=      5-min Rain = 0
KME1 191714Z 34014G19KT 09/M04 A3034 RMK A01 T00861035  RH  042%=      5-min Rain = 0
KME1 191715Z 33017G22KT 09/M04 A3034 RMK A01 T00861036  RH  042%=      5-min Rain = 0
KME1 191716Z 34012G17KT 09/M04 A3034 RMK A01 T00861035  RH  042%=      5-min Rain = 0
KME1 191717Z 34015G20KT 09/M03 A3034 RMK A01 T00881031  RH  043%=      5-min Rain = 0
KME1 191718Z 34019KT 09/M03 A3034 RMK A01 T00891033  RH  042%=      5-min Rain = 0
KME1 191719Z 34018KT 09/M03 A3034 RMK A01 T00901034  RH  042%=      5-min Rain = 0
KME1 191720Z 33011G16KT 09/M03 A3034 RMK A01 T00891034  RH  042%=      5-min Rain = 0
KME1 191721Z 34018KT 09/M03 A3034 RMK A01 T00921031  RH  042%=      5-min Rain = 0
KME1 191722Z 34017KT 09/M04 A3033 RMK A01 T00911037  RH  040%=      5-min Rain = 0
KME1 191723Z 33016G21KT 09/M04 A3034 RMK A01 T00891035  RH  041%=      5-min Rain = 0
KME1 191724Z 33018KT 09/M04 A3033 RMK A01 T00911035  RH  041%=      5-min Rain = 0
KME1 191725Z 33016KT 09/M04 A3033 RMK A01 T00901037  RH  041%=      5-min Rain = 0
KME1 191726Z 33018G23KT 09/M04 A3033 RMK A01 T00901037  RH  040%=      5-min Rain = 0
KME1 191727Z 34013KT 09/M04 A3033 RMK A01 T00901035  RH  041%=      5-min Rain = 0
KME1 191728Z 34013KT 09/M03 A3033 RMK A01 T00931032  RH  041%=      5-min Rain = 0
KME1 191729Z 34017G22KT 10/M03 A3033 RMK A01 T00951032  RH  041%=      5-min Rain = 0
KME1 191730Z 34017KT 09/M04 A3033 RMK A01 T00931037  RH  040%=      5-min Rain = 0
KME1 191731Z 35018KT 09/M04 A3033 RMK A01 T00911036  RH  041%=      5-min Rain = 0
KME1 191732Z 34016KT 09/M03 A3033 RMK A01 T00921034  RH  041%=      5-min Rain = 0
KME1 191733Z 33020KT 09/M03 A3033 RMK A01 T00941033  RH  041%=      5-min Rain = 0
KME1 191734Z 34016KT 09/M04 A3033 RMK A01 T00941035  RH  040%=      5-min Rain = 0
KME1 191735Z 34017G22KT 09/M03 A3033 RMK A01 T00941033  RH  041%=      5-min Rain = 0
KME1 191736Z 33015KT 10/M03 A3033 RMK A01 T00951033  RH  040%=      5-min Rain = 0
KME1 191737Z 33011G17KT 10/M03 A3033 RMK A01 T00951033  RH  040%=      5-min Rain = 0
KME1 191738Z 33019KT 10/M03 A3033 RMK A01 T00961033  RH  040%=      5-min Rain = 0
KME1 191739Z 33015KT 10/M03 A3033 RMK A01 T00951033  RH  040%=      5-min Rain = 0
KME1 191740Z 33016KT 10/M03 A3033 RMK A01 T00951034  RH  040%=      5-min Rain = 0
KME1 191741Z 32017KT 10/M03 A3033 RMK A01 T00951034  RH  040%=      5-min Rain = 0
KME1 191742Z 33017KT 09/M04 A3033 RMK A01 T00941035  RH  040%=      5-min Rain = 0
KME1 191743Z 33018KT 09/M04 A3033 RMK A01 T00941035  RH  040%=      5-min Rain = 0
KME1 191744Z 33014KT 09/M03 A3033 RMK A01 T00941034  RH  040%=      5-min Rain = 0
KME1 191745Z 32015KT 10/M03 A3033 RMK A01 T00951032  RH  041%=      5-min Rain = 0
KME1 191746Z 33017KT 10/M03 A3033 RMK A01 T00951033  RH  040%=      5-min Rain = 0
KME1 191747Z 34015KT 10/M03 A3033 RMK A01 T00961032  RH  041%=      5-min Rain = 0
KME1 191748Z 34012KT 10/M03 A3033 RMK A01 T00991029  RH  040%=      5-min Rain = 0
KME1 191749Z 34014KT 10/M03 A3033 RMK A01 T01021026  RH  041%=      5-min Rain = 0
KME1 191750Z 35017G22KT 10/M03 A3033 RMK A01 T01041028  RH  040%=      5-min Rain = 0
KME1 191751Z 34015G21KT 10/M03 A3033 RMK A01 T01041028  RH  039%=      5-min Rain = 0
KME1 191752Z 33016G23KT 10/M03 A3033 RMK A01 T01031031  RH  039%=      5-min Rain = 0
KME1 191753Z 33018KT 10/M03 A3033 RMK A01 T01021031  RH  039%=      5-min Rain = 0
KME1 191754Z 33016KT 10/M03 A3033 RMK A01 T01011034  RH  039%=      5-min Rain = 0
KME1 191755Z 33017KT 10/M03 A3033 RMK A01 T00991034  RH  039%=      5-min Rain = 0
KME1 191756Z 33016G21KT 10/M03 A3033 RMK A01 T00991034  RH  039%=      5-min Rain = 0
KME1 191757Z 33016KT 10/M03 A3033 RMK A01 T01001032  RH  039%=      5-min Rain = 0
KME1 191758Z 33018G23KT 10/M03 A3033 RMK A01 T01011032  RH  039%=      5-min Rain = 0
KME1 191759Z 32018G23KT 10/M03 A3033 RMK A01 T01011034  RH  039%=      5-min Rain = 0
KME1 191800Z 32018G24KT 10/M03 A3033 RMK A01 T01011033  RH  039%=      5-min Rain = 0
KME1 191801Z 33018KT 10/M04 A3033 RMK A01 T01001035  RH  038%=      5-min Rain = 0
KME1 191802Z 34018KT 10/M03 A3033 RMK A01 T01001034  RH  039%=      5-min Rain = 0
KME1 191803Z 33016G23KT 10/M03 A3033 RMK A01 T01001032  RH  039%=      5-min Rain = 0
KME1 191804Z 34016KT 10/M03 A3033 RMK A01 T01021032  RH  039%=      5-min Rain = 0
KME1 191805Z 33017G23KT 10/M03 A3033 RMK A01 T01021033  RH  039%=      5-min Rain = 0
KME1 191806Z 33020KT 10/M03 A3033 RMK A01 T01021033  RH  038%=      5-min Rain = 0
KME1 191807Z 33019G24KT 10/M03 A3033 RMK A01 T01021034  RH  038%=      5-min Rain = 0
KME1 191808Z 33019KT 10/M03 A3033 RMK A01 T01021034  RH  038%=      5-min Rain = 0
KME1 191809Z 35018KT 10/M04 A3033 RMK A01 T01021035  RH  038%=      5-min Rain = 0
KME1 191810Z 35016KT 10/M03 A3033 RMK A01 T01021033  RH  039%=      5-min Rain = 0
KME1 191811Z 35016G21KT 10/M03 A3033 RMK A01 T01031031  RH  039%=      5-min Rain = 0
KME1 191812Z 34016G21KT 11/M03 A3033 RMK A01 T01051030  RH  039%=      5-min Rain = 0
KME1 191813Z 34018KT 11/M03 A3033 RMK A01 T01061033  RH  038%=      5-min Rain = 0
KME1 191814Z 33018KT 11/M04 A3032 RMK A01 T01051036  RH  037%=      5-min Rain = 0
KME1 191815Z 34019G24KT 10/M04 A3032 RMK A01 T01031036  RH  037%=      5-min Rain = 0
KME1 191816Z 33014KT 10/M03 A3032 RMK A01 T01031034  RH  038%=      5-min Rain = 0
KME1 191817Z 35013G18KT 11/M03 A3032 RMK A01 T01051031  RH  039%=      5-min Rain = 0
KME1 191818Z 34013KT 11/M03 A3032 RMK A01 T01071029  RH  038%=      5-min Rain = 0
KME1 191819Z 34022KT 11/M03 A3032 RMK A01 T01091029  RH  038%=      5-min Rain = 0
KME1 191820Z 35017G22KT 11/M03 A3032 RMK A01 T01081033  RH  037%=      5-min Rain = 0
KME1 191821Z 35019G24KT 11/M03 A3032 RMK A01 T01071033  RH  037%=      5-min Rain = 0
KME1 191822Z 35019KT 11/M03 A3032 RMK A01 T01051034  RH  038%=      5-min Rain = 0
KME1 191823Z 34020G25KT 11/M03 A3032 RMK A01 T01051030  RH  039%=      5-min Rain = 0
KME1 191824Z 34020KT 11/M03 A3032 RMK A01 T01071031  RH  038%=      5-min Rain = 0
KME1 191825Z 35019KT 11/M03 A3032 RMK A01 T01061032  RH  038%=      5-min Rain = 0
KME1 191826Z 35017G23KT 11/M03 A3032 RMK A01 T01061032  RH  038%=      5-min Rain = 0
KME1 191827Z 34019KT 11/M03 A3032 RMK A01 T01071030  RH  038%=      5-min Rain = 0
KME1 191828Z 34017G22KT 11/M03 A3032 RMK A01 T01081032  RH  037%=      5-min Rain = 0
KME1 191829Z 34015G21KT 11/M03 A3032 RMK A01 T01081031  RH  038%=      5-min Rain = 0
KME1 191830Z 34023KT 11/M03 A3031 RMK A01 T01091031  RH  037%=      5-min Rain = 0
KME1 191831Z 35019KT 11/M03 A3032 RMK A01 T01091034  RH  037%=      5-min Rain = 0
KME1 191832Z 34015KT 11/M03 A3032 RMK A01 T01091032  RH  037%=      5-min Rain = 0
KME1 191833Z 33019G24KT 11/M03 A3031 RMK A01 T01111031  RH  037%=      5-min Rain = 0
KME1 191834Z 33018KT 11/M03 A3031 RMK A01 T01111033  RH  036%=      5-min Rain = 0
KME1 191835Z 34016G22KT 11/M03 A3032 RMK A01 T01111032  RH  037%=      5-min Rain = 0
KME1 191836Z 34016G22KT 11/M03 A3032 RMK A01 T01121028  RH  037%=      5-min Rain = 0
KME1 191837Z 35018KT 11/M03 A3031 RMK A01 T01141031  RH  036%=      5-min Rain = 0
KME1 191838Z 35018KT 11/M03 A3031 RMK A01 T01121031  RH  036%=      5-min Rain = 0
KME1 191839Z 35020G26KT 11/M03 A3031 RMK A01 T01111031  RH  037%=      5-min Rain = 0
KME1 191840Z 34015G20KT 11/M03 A3031 RMK A01 T01111031  RH  037%=      5-min Rain = 0
KME1 191841Z 33013KT 11/M03 A3031 RMK A01 T01131027  RH  037%=      5-min Rain = 0
KME1 191842Z 34015G22KT 12/M03 A3031 RMK A01 T01151027  RH  037%=      5-min Rain = 0
KME1 191843Z 34018G24KT 12/M03 A3031 RMK A01 T01171028  RH  036%=      5-min Rain = 0
KME1 191844Z 34020KT 12/M03 A3031 RMK A01 T01151032  RH  035%=      5-min Rain = 0
KME1 191845Z 34014KT 11/M03 A3031 RMK A01 T01131033  RH  036%=      5-min Rain = 0
KME1 191846Z 34016KT 11/M03 A3031 RMK A01 T01141028  RH  037%=      5-min Rain = 0
KME1 191847Z 34016KT 12/M03 A3031 RMK A01 T01161028  RH  036%=      5-min Rain = 0
KME1 191848Z 34017G22KT 12/M03 A3031 RMK A01 T01161030  RH  036%=      5-min Rain = 0
KME1 191849Z 34018KT 11/M03 A3031 RMK A01 T01141033  RH  036%=      5-min Rain = 0
KME1 191850Z 33017KT 11/M03 A303 RMK A01 T01121033  RH  036%=      5-min Rain = 0
KME1 191851Z 34016KT 11/M03 A3031 RMK A01 T01131031  RH  036%=      5-min Rain = 0
KME1 191852Z 34013G18KT 12/M03 A303 RMK A01 T01151028  RH  037%=      5-min Rain = 0
KME1 191853Z 34017G22KT 12/M03 A303 RMK A01 T01181026  RH  037%=      5-min Rain = 0
KME1 191854Z 33018G23KT 12/M03 A303 RMK A01 T01181029  RH  036%=      5-min Rain = 0
KME1 191855Z 34017KT 12/M03 A303 RMK A01 T01171032  RH  035%=      5-min Rain = 0
KME1 191856Z 34023KT 12/M03 A303 RMK A01 T01161034  RH  035%=      5-min Rain = 0
KME1 191857Z 34022G27KT 11/M04 A303 RMK A01 T01141036  RH  035%=      5-min Rain = 0
KME1 191858Z 35020KT 11/M04 A303 RMK A01 T01121036  RH  035%=      5-min Rain = 0
KME1 191859Z 35018KT 11/M03 A303 RMK A01 T01121032  RH  036%=      5-min Rain = 0
KME1 191900Z 34016G22KT 11/M03 A303 RMK A01 T01141030  RH  036%=      5-min Rain = 0
KME1 191901Z 34018KT 12/M03 A303 RMK A01 T01161029  RH  036%=      5-min Rain = 0
KME1 191902Z 35018KT 12/M03 A303 RMK A01 T01161031  RH  036%=      5-min Rain = 0
KME1 191903Z 35016KT 12/M03 A303 RMK A01 T01161028  RH  036%=      5-min Rain = 0
KME1 191904Z 34016KT 12/M03 A303 RMK A01 T01181028  RH  036%=      5-min Rain = 0
KME1 191905Z 34014G20KT 12/M03 A303 RMK A01 T01181028  RH  036%=      5-min Rain = 0
KME1 191906Z 34018KT 12/M03 A303 RMK A01 T01181029  RH  036%=      5-min Rain = 0
KME1 191907Z 34019KT 12/M03 A303 RMK A01 T01181029  RH  036%=      5-min Rain = 0
KME1 191908Z 33016G22KT 12/M03 A303 RMK A01 T01171030  RH  035%=      5-min Rain = 0
KME1 191909Z 35014G22KT 12/M03 A303 RMK A01 T01171029  RH  036%=      5-min Rain = 0
KME1 191910Z 34014KT 12/M03 A303 RMK A01 T01201026  RH  036%=      5-min Rain = 0
KME1 191911Z 00017KT 12/M03 A303 RMK A01 T01221025  RH  036%=      5-min Rain = 0
KME1 191912Z 35020KT 12/M03 A303 RMK A01 T01221028  RH  035%=      5-min Rain = 0
KME1 191913Z 35019KT 12/M03 A303 RMK A01 T01201030  RH  035%=      5-min Rain = 0
KME1 191914Z 36017KT 12/M03 A3029 RMK A01 T01181031  RH  035%=      5-min Rain = 0
KME1 191915Z 34018G28KT 12/M03 A3029 RMK A01 T01181028  RH  036%=      5-min Rain = 0
KME1 191916Z 35020KT 12/M03 A3029 RMK A01 T01191031  RH  035%=      5-min Rain = 0
KME1 191917Z 34020G25KT 12/M03 A3029 RMK A01 T01191031  RH  035%=      5-min Rain = 0
KME1 191918Z 34020KT 12/M03 A3029 RMK A01 T01201030  RH  035%=      5-min Rain = 0
KME1 191919Z 34020G25KT 12/M03 A3029 RMK A01 T01191032  RH  035%=      5-min Rain = 0
KME1 191920Z 34021KT 12/M03 A3029 RMK A01 T01191031  RH  035%=      5-min Rain = 0
KME1 191921Z 34024KT 12/M03 A3029 RMK A01 T01181034  RH  034%=      5-min Rain = 0
KME1 191922Z 35020G25KT 12/M03 A3029 RMK A01 T01181032  RH  035%=      5-min Rain = 0
KME1 191923Z 34019KT 12/M03 A3029 RMK A01 T01191031  RH  035%=      5-min Rain = 0
KME1 191924Z 35018KT 12/M03 A3029 RMK A01 T01191032  RH  035%=      5-min Rain = 0
KME1 191925Z 34021KT 12/M03 A3029 RMK A01 T01191032  RH  035%=      5-min Rain = 0
KME1 191926Z 35019G24KT 12/M03 A3029 RMK A01 T01181033  RH  035%=      5-min Rain = 0
KME1 191927Z 36020KT 12/M03 A3029 RMK A01 T01191030  RH  035%=      5-min Rain = 0
KME1 191928Z 36018KT 12/M03 A3029 RMK A01 T01211030  RH  035%=      5-min Rain = 0
KME1 191929Z 35021G27KT 12/M03 A3029 RMK A01 T01221030  RH  035%=      5-min Rain = 0
KME1 191930Z 35019KT 12/M03 A3029 RMK A01 T01211030  RH  035%=      5-min Rain = 0
KME1 191931Z 35021KT 12/M03 A3029 RMK A01 T01211031  RH  035%=      5-min Rain = 0
KME1 191932Z 35019G24KT 12/M03 A3029 RMK A01 T01201030  RH  035%=      5-min Rain = 0
KME1 191933Z 36017KT 12/M03 A3029 RMK A01 T01201029  RH  035%=      5-min Rain = 0
KME1 191934Z 36020KT 12/M03 A3029 RMK A01 T01221028  RH  035%=      5-min Rain = 0
KME1 191935Z 36019KT 12/M03 A3029 RMK A01 T01221030  RH  035%=      5-min Rain = 0
KME1 191936Z 35019KT 12/M03 A3029 RMK A01 T01211030  RH  035%=      5-min Rain = 0
KME1 191937Z 35017KT 12/M03 A3029 RMK A01 T01201030  RH  035%=      5-min Rain = 0
KME1 191938Z 35015KT 12/M03 A3029 RMK A01 T01201028  RH  035%=      5-min Rain = 0
KME1 191939Z 35017KT 12/M03 A3029 RMK A01 T01221026  RH  036%=      5-min Rain = 0
KME1 191940Z 34019G25KT 12/M03 A3029 RMK A01 T01241027  RH  035%=      5-min Rain = 0
KME1 191941Z 33017G23KT 12/M03 A3029 RMK A01 T01231029  RH  034%=      5-min Rain = 0
KME1 191942Z 33017G22KT 12/M03 A3028 RMK A01 T01221029  RH  035%=      5-min Rain = 0
KME1 191943Z 35016KT 12/M03 A3028 RMK A01 T01231029  RH  034%=      5-min Rain = 0
KME1 191944Z 35016G23KT 12/M03 A3029 RMK A01 T01241029  RH  035%=      5-min Rain = 0
KME1 191945Z 34017G23KT 13/M02 A3028 RMK A01 T01271023  RH  035%=      5-min Rain = 0
KME1 191946Z 35018KT 13/M03 A3029 RMK A01 T01281027  RH  034%=      5-min Rain = 0
KME1 191947Z 34016KT 13/M03 A3028 RMK A01 T01261028  RH  034%=      5-min Rain = 0
KME1 191948Z 35014KT 12/M03 A3028 RMK A01 T01241030  RH  034%=      5-min Rain = 0
KME1 191949Z 34016KT 12/M03 A3028 RMK A01 T01241029  RH  034%=      5-min Rain = 0
KME1 191950Z 33016G21KT 12/M03 A3028 RMK A01 T01241031  RH  034%=      5-min Rain = 0
KME1 191951Z 33017G23KT 13/M03 A3028 RMK A01 T01251029  RH  034%=      5-min Rain = 0
KME1 191952Z 34019G25KT 13/M03 A3028 RMK A01 T01261030  RH  034%=      5-min Rain = 0
KME1 191953Z 33019KT 13/M03 A3028 RMK A01 T01261031  RH  034%=      5-min Rain = 0
KME1 191954Z 33014KT 13/M03 A3028 RMK A01 T01251031  RH  034%=      5-min Rain = 0
KME1 191955Z 34015G22KT 13/M03 A3028 RMK A01 T01271027  RH  034%=      5-min Rain = 0
KME1 191956Z 34019G24KT 13/M03 A3028 RMK A01 T01281029  RH  034%=      5-min Rain = 0
KME1 191957Z 34016KT 13/M03 A3028 RMK A01 T01271028  RH  034%=      5-min Rain = 0
KME1 191958Z 34017G24KT 13/M03 A3028 RMK A01 T01271029  RH  034%=      5-min Rain = 0
KME1 191959Z 34018KT 13/M03 A3028 RMK A01 T01261029  RH  034%=      5-min Rain = 0
KME1 192000Z 35015KT 13/M03 A3028 RMK A01 T01261028  RH  034%=      5-min Rain = 0
KME1 192001Z 34015KT 13/M03 A3028 RMK A01 T01261026  RH  035%=      5-min Rain = 0
KME1 192002Z 34016KT 13/M03 A3028 RMK A01 T01271027  RH  034%=      5-min Rain = 0
KME1 192003Z 33017KT 13/M03 A3028 RMK A01 T01261030  RH  034%=      5-min Rain = 0
KME1 192004Z 33014KT 13/M03 A3028 RMK A01 T01251029  RH  034%=      5-min Rain = 0
KME1 192005Z 33012G17KT 13/M03 A3028 RMK A01 T01251027  RH  035%=      5-min Rain = 0
KME1 192006Z 33013KT 13/M03 A3028 RMK A01 T01261026  RH  034%=      5-min Rain = 0
KME1 192007Z 34011KT 13/M03 A3028 RMK A01 T01271027  RH  034%=      5-min Rain = 0
KME1 192008Z 32011G17KT 13/M03 A3028 RMK A01 T01281025  RH  035%=      5-min Rain = 0
KME1 192009Z 34018KT 13/M02 A3028 RMK A01 T01311022  RH  035%=      5-min Rain = 0
KME1 192010Z 34014KT 13/M03 A3028 RMK A01 T01311026  RH  034%=      5-min Rain = 0
KME1 192011Z 32014KT 13/M03 A3028 RMK A01 T01301025  RH  034%=      5-min Rain = 0
KME1 192012Z 33013G18KT 13/M03 A3028 RMK A01 T01291026  RH  034%=      5-min Rain = 0
KME1 192013Z 32013G19KT 13/M03 A3028 RMK A01 T01301027  RH  033%=      5-min Rain = 0
KME1 192014Z 34017KT 13/M02 A3028 RMK A01 T01311024  RH  034%=      5-min Rain = 0
KME1 192015Z 34017KT 13/M02 A3028 RMK A01 T01331023  RH  034%=      5-min Rain = 0
KME1 192016Z 34015G20KT 13/M02 A3028 RMK A01 T01331024  RH  033%=      5-min Rain = 0
KME1 192017Z 34021G29KT 13/M03 A3028 RMK A01 T01331027  RH  033%=      5-min Rain = 0
KME1 192018Z 33020G25KT 13/M03 A3028 RMK A01 T01311031  RH  032%=      5-min Rain = 0
KME1 192019Z 33018KT 13/M03 A3028 RMK A01 T01291032  RH  033%=      5-min Rain = 0
KME1 192020Z 35016G22KT 13/M03 A3028 RMK A01 T01291030  RH  033%=      5-min Rain = 0
KME1 192021Z 35018KT 13/M03 A3028 RMK A01 T01301027  RH  033%=      5-min Rain = 0
KME1 192022Z 34015G24KT 13/M03 A3028 RMK A01 T01301028  RH  033%=      5-min Rain = 0
KME1 192023Z 34017KT 13/M03 A3028 RMK A01 T01301030  RH  033%=      5-min Rain = 0
KME1 192024Z 35020G26KT 13/M03 A3028 RMK A01 T01301028  RH  033%=      5-min Rain = 0
KME1 192025Z 35019G25KT 13/M03 A3028 RMK A01 T01301031  RH  033%=      5-min Rain = 0
KME1 192026Z 36018KT 13/M03 A3028 RMK A01 T01291028  RH  033%=      5-min Rain = 0
KME1 192027Z 35017KT 13/M03 A3028 RMK A01 T01301027  RH  033%=      5-min Rain = 0
KME1 192028Z 00017KT 13/M03 A3028 RMK A01 T01311025  RH  034%=      5-min Rain = 0
KME1 192029Z 36016G21KT 13/M03 A3028 RMK A01 T01331026  RH  033%=      5-min Rain = 0
KME1 192030Z 35015KT 13/M03 A3028 RMK A01 T01321025  RH  033%=      5-min Rain = 0
KME1 192031Z 34015G22KT 13/M03 A3028 RMK A01 T01331025  RH  033%=      5-min Rain = 0
KME1 192032Z 33014G20KT 13/M03 A3028 RMK A01 T01331026  RH  033%=      5-min Rain = 0
KME1 192033Z 33016G22KT 13/M03 A3027 RMK A01 T01331027  RH  033%=      5-min Rain = 0
KME1 192034Z 34018KT 13/M03 A3028 RMK A01 T01321029  RH  032%=      5-min Rain = 0
KME1 192035Z 34017KT 13/M03 A3028 RMK A01 T01311029  RH  033%=      5-min Rain = 0
KME1 192036Z 34016KT 13/M03 A3027 RMK A01 T01311029  RH  033%=      5-min Rain = 0
KME1 192037Z 34012KT 13/M03 A3027 RMK A01 T01301030  RH  033%=      5-min Rain = 0
KME1 192038Z 33015G20KT 13/M03 A3027 RMK A01 T01311028  RH  033%=      5-min Rain = 0
KME1 192039Z 34017KT 13/M03 A3027 RMK A01 T01331026  RH  033%=      5-min Rain = 0
KME1 192040Z 34016G22KT 14/M02 A3027 RMK A01 T01351024  RH  033%=      5-min Rain = 0
KME1 192041Z 35013KT 14/M02 A3028 RMK A01 T01361023  RH  033%=      5-min Rain = 0
KME1 192042Z 35017KT 14/M02 A3028 RMK A01 T01381021  RH  033%=      5-min Rain = 0
KME1 192043Z 36018G23KT 14/M03 A3028 RMK A01 T01361027  RH  032%=      5-min Rain = 0
KME1 192044Z 00019KT 13/M03 A3027 RMK A01 T01341028  RH  032%=      5-min Rain = 0
KME1 192045Z 35018G24KT 13/M03 A3027 RMK A01 T01331026  RH  033%=      5-min Rain = 0
KME1 192046Z 35023KT 13/M03 A3027 RMK A01 T01341026  RH  033%=      5-min Rain = 0
KME1 192047Z 35020KT 13/M03 A3027 RMK A01 T01331030  RH  032%=      5-min Rain = 0
KME1 192048Z 34019KT 13/M03 A3027 RMK A01 T01311030  RH  032%=      5-min Rain = 0
KME1 192049Z 35018KT 13/M03 A3027 RMK A01 T01311028  RH  033%=      5-min Rain = 0
KME1 192050Z 35020KT 13/M03 A3027 RMK A01 T01331027  RH  033%=      5-min Rain = 0
KME1 192051Z 35019KT 13/M03 A3027 RMK A01 T01311031  RH  032%=      5-min Rain = 0
KME1 192052Z 34018KT 13/M03 A3027 RMK A01 T01301030  RH  033%=      5-min Rain = 0
KME1 192053Z 35017KT 13/M03 A3027 RMK A01 T01301029  RH  033%=      5-min Rain = 0
KME1 192054Z 00022G27KT 13/M03 A3027 RMK A01 T01301029  RH  033%=      5-min Rain = 0
KME1 192055Z 36022KT 13/M03 A3027 RMK A01 T01301029  RH  033%=      5-min Rain = 0
KME1 192056Z 34020KT 13/M03 A3027 RMK A01 T01301029  RH  033%=      5-min Rain = 0
KME1 192057Z 35017G22KT 13/M03 A3027 RMK A01 T01301029  RH  033%=      5-min Rain = 0
KME1 192058Z 34014KT 13/M03 A3027 RMK A01 T01301027  RH  034%=      5-min Rain = 0
KME1 192059Z 00015G21KT 13/M02 A3027 RMK A01 T01331023  RH  034%=      5-min Rain = 0
KME1 192100Z 00018KT 13/M03 A3027 RMK A01 T01341027  RH  033%=      5-min Rain = 0
KME1 192101Z 00017KT 13/M03 A3027 RMK A01 T01331026  RH  033%=      5-min Rain = 0
KME1 192102Z 34015G21KT 13/M03 A3027 RMK A01 T01331025  RH  033%=      5-min Rain = 0
KME1 192103Z 35018KT 13/M03 A3027 RMK A01 T01331026  RH  033%=      5-min Rain = 0
KME1 192104Z 34018G24KT 13/M03 A3027 RMK A01 T01331027  RH  033%=      5-min Rain = 0
KME1 192105Z 33014KT 13/M03 A3027 RMK A01 T01321026  RH  033%=      5-min Rain = 0
KME1 192106Z 33013KT 13/M03 A3027 RMK A01 T01311029  RH  033%=      5-min Rain = 0
KME1 192107Z 34011KT 13/M03 A3027 RMK A01 T01301028  RH  033%=      5-min Rain = 0
KME1 192108Z 34011KT 13/M02 A3027 RMK A01 T01321024  RH  034%=      5-min Rain = 0
KME1 192109Z 34009G14KT 14/M02 A3027 RMK A01 T01361019  RH  034%=      5-min Rain = 0
KME1 192110Z 34014KT 14/M02 A3027 RMK A01 T01381022  RH  033%=      5-min Rain = 0
KME1 192111Z 35013KT 14/M02 A3027 RMK A01 T01371022  RH  033%=      5-min Rain = 0
KME1 192112Z 35014KT 14/M02 A3027 RMK A01 T01371023  RH  033%=      5-min Rain = 0
KME1 192113Z 35016KT 14/M02 A3027 RMK A01 T01361023  RH  033%=      5-min Rain = 0
KME1 192114Z 34015KT 13/M03 A3027 RMK A01 T01341026  RH  033%=      5-min Rain = 0
KME1 192115Z 35014KT 13/M03 A3027 RMK A01 T01331026  RH  033%=      5-min Rain = 0
KME1 192116Z 34015KT 13/M02 A3027 RMK A01 T01331024  RH  034%=      5-min Rain = 0
KME1 192117Z 33013KT 13/M02 A3027 RMK A01 T01341023  RH  034%=      5-min Rain = 0
KME1 192118Z 31015KT 14/M02 A3027 RMK A01 T01351023  RH  033%=      5-min Rain = 0
KME1 192119Z 32014KT 14/M03 A3027 RMK A01 T01351025  RH  033%=      5-min Rain = 0
KME1 192120Z 33013KT 13/M03 A3027 RMK A01 T01341025  RH  033%=      5-min Rain = 0
KME1 192121Z 36016KT 13/M02 A3027 RMK A01 T01341024  RH  033%=      5-min Rain = 0
KME1 192122Z 35015KT 13/M02 A3027 RMK A01 T01341022  RH  034%=      5-min Rain = 0
KME1 192123Z 34016KT 14/M02 A3027 RMK A01 T01351021  RH  034%=      5-min Rain = 0
KME1 192124Z 34014KT 14/M02 A3027 RMK A01 T01351024  RH  033%=      5-min Rain = 0
KME1 192125Z 33011KT 14/M02 A3027 RMK A01 T01351021  RH  034%=      5-min Rain = 0
KME1 192126Z 34010KT 14/M02 A3027 RMK A01 T01371022  RH  033%=      5-min Rain = 0
KME1 192127Z 34010KT 14/M02 A3027 RMK A01 T01371022  RH  033%=      5-min Rain = 0
KME1 192128Z 35018KT 14/M02 A3027 RMK A01 T01371022  RH  033%=      5-min Rain = 0
KME1 192129Z 33014G19KT 14/M02 A3027 RMK A01 T01371024  RH  033%=      5-min Rain = 0
KME1 192130Z 32014G21KT 14/M02 A3027 RMK A01 T01381023  RH  033%=      5-min Rain = 0
KME1 192131Z 32014KT 14/M02 A3027 RMK A01 T01381024  RH  032%=      5-min Rain = 0
KME1 192132Z 31012KT 14/M03 A3027 RMK A01 T01381026  RH  032%=      5-min Rain = 0
KME1 192133Z 31012KT 14/M03 A3027 RMK A01 T01381026  RH  032%=      5-min Rain = 0
KME1 192134Z 32013KT 14/M03 A3027 RMK A01 T01371026  RH  032%=      5-min Rain = 0
KME1 192135Z 33016KT 14/M03 A3027 RMK A01 T01371027  RH  032%=      5-min Rain = 0
KME1 192136Z 33013G18KT 14/M03 A3027 RMK A01 T01361029  RH  032%=      5-min Rain = 0
KME1 192137Z 33014KT 14/M03 A3027 RMK A01 T01351029  RH  032%=      5-min Rain = 0
KME1 192138Z 32014G19KT 14/M03 A3027 RMK A01 T01351029  RH  032%=      5-min Rain = 0
KME1 192139Z 32016KT 13/M03 A3027 RMK A01 T01341029  RH  032%=      5-min Rain = 0
KME1 192140Z 32015G21KT 13/M03 A3026 RMK A01 T01341029  RH  032%=      5-min Rain = 0
KME1 192141Z 33017G22KT 13/M03 A3027 RMK A01 T01341027  RH  032%=      5-min Rain = 0
KME1 192142Z 34015KT 13/M03 A3027 RMK A01 T01341029  RH  032%=      5-min Rain = 0
KME1 192143Z 34016KT 13/M03 A3027 RMK A01 T01341028  RH  032%=      5-min Rain = 0
KME1 192144Z 34017KT 13/M03 A3027 RMK A01 T01341028  RH  032%=      5-min Rain = 0
KME1 192145Z 33014KT 13/M03 A3027 RMK A01 T01341029  RH  032%=      5-min Rain = 0
KME1 192146Z 34015KT 13/M03 A3027 RMK A01 T01341030  RH  032%=      5-min Rain = 0
KME1 192147Z 33014KT 13/M03 A3027 RMK A01 T01341030  RH  032%=      5-min Rain = 0
KME1 192148Z 34015KT 13/M03 A3027 RMK A01 T01341029  RH  032%=      5-min Rain = 0
KME1 192149Z 33016KT 13/M03 A3027 RMK A01 T01331030  RH  032%=      5-min Rain = 0
KME1 192150Z 33016KT 13/M03 A3027 RMK A01 T01321030  RH  032%=      5-min Rain = 0
KME1 192151Z 33012KT 13/M03 A3027 RMK A01 T01321029  RH  033%=      5-min Rain = 0
KME1 192152Z 34011KT 13/M03 A3027 RMK A01 T01321026  RH  033%=      5-min Rain = 0
KME1 192153Z 35012KT 13/M03 A3027 RMK A01 T01331027  RH  033%=      5-min Rain = 0
KME1 192154Z 34012KT 13/M03 A3026 RMK A01 T01331026  RH  033%=      5-min Rain = 0
KME1 192155Z 32010KT 13/M03 A3026 RMK A01 T01331027  RH  033%=      5-min Rain = 0
KME1 192156Z 32010KT 13/M02 A3026 RMK A01 T01341024  RH  033%=      5-min Rain = 0
KME1 192157Z 34013KT 14/M02 A3026 RMK A01 T01351024  RH  033%=      5-min Rain = 0
KME1 192158Z 34013KT 14/M02 A3026 RMK A01 T01351023  RH  033%=      5-min Rain = 0
KME1 192159Z 34013KT 14/M03 A3026 RMK A01 T01351025  RH  033%=      5-min Rain = 0
KME1 192200Z 34013KT 13/M02 A3026 RMK A01 T01341023  RH  033%=      5-min Rain = 0
KME1 192201Z 34012KT 14/M02 A3026 RMK A01 T01351022  RH  034%=      5-min Rain = 0
KME1 192202Z 34012KT 14/M02 A3026 RMK A01 T01361023  RH  033%=      5-min Rain = 0
KME1 192203Z 34013KT 14/M02 A3026 RMK A01 T01361023  RH  033%=      5-min Rain = 0
KME1 192204Z 33011KT 14/M03 A3026 RMK A01 T01351026  RH  033%=      5-min Rain = 0
KME1 192205Z 33008KT 13/M02 A3026 RMK A01 T01341024  RH  033%=      5-min Rain = 0
KME1 192206Z 32009KT 14/M02 A3026 RMK A01 T01361022  RH  033%=      5-min Rain = 0
KME1 192207Z 31012KT 14/M02 A3026 RMK A01 T01371024  RH  033%=      5-min Rain = 0
KME1 192208Z 32014KT 14/M03 A3026 RMK A01 T01361026  RH  032%=      5-min Rain = 0
KME1 192209Z 32010KT 14/M03 A3026 RMK A01 T01351026  RH  033%=      5-min Rain = 0
KME1 192210Z 33010KT 14/M03 A3026 RMK A01 T01351025  RH  033%=      5-min Rain = 0
KME1 192211Z 33011KT 14/M03 A3026 RMK A01 T01351025  RH  033%=      5-min Rain = 0
KME1 192212Z 33010KT 14/M02 A3026 RMK A01 T01351024  RH  033%=      5-min Rain = 0
KME1 192213Z 34008KT 14/M02 A3026 RMK A01 T01351023  RH  033%=      5-min Rain = 0
KME1 192214Z 35012G18KT 14/M02 A3026 RMK A01 T01361021  RH  034%=      5-min Rain = 0
KME1 192215Z 35015KT 14/M02 A3026 RMK A01 T01371023  RH  033%=      5-min Rain = 0
KME1 192216Z 34011KT 14/M02 A3026 RMK A01 T01361024  RH  033%=      5-min Rain = 0
KME1 192217Z 33013KT 14/M02 A3026 RMK A01 T01351023  RH  033%=      5-min Rain = 0
KME1 192218Z 33013KT 14/M03 A3026 RMK A01 T01351026  RH  033%=      5-min Rain = 0
KME1 192219Z 33012KT 13/M03 A3026 RMK A01 T01331027  RH  033%=      5-min Rain = 0
KME1 192220Z 33013KT 13/M03 A3026 RMK A01 T01321028  RH  033%=      5-min Rain = 0
KME1 192221Z 34012KT 13/M03 A3026 RMK A01 T01321027  RH  033%=      5-min Rain = 0
KME1 192222Z 34012KT 13/M03 A3026 RMK A01 T01321025  RH  034%=      5-min Rain = 0
KME1 192223Z 33014G19KT 13/M03 A3026 RMK A01 T01331025  RH  033%=      5-min Rain = 0
KME1 192224Z 35011KT 13/M02 A3026 RMK A01 T01331024  RH  033%=      5-min Rain = 0
KME1 192225Z 35012KT 13/M02 A3026 RMK A01 T01331023  RH  034%=      5-min Rain = 0
KME1 192226Z 34011KT 13/M02 A3026 RMK A01 T01341022  RH  034%=      5-min Rain = 0
KME1 192227Z 34009KT 13/M02 A3026 RMK A01 T01341021  RH  034%=      5-min Rain = 0
KME1 192228Z 34010KT 14/M02 A3026 RMK A01 T01351023  RH  034%=      5-min Rain = 0
KME1 192229Z 34012KT 14/M02 A3026 RMK A01 T01351021  RH  034%=      5-min Rain = 0
KME1 192230Z 35012KT 13/M02 A3026 RMK A01 T01341024  RH  033%=      5-min Rain = 0
KME1 192231Z 35015KT 13/M02 A3026 RMK A01 T01331023  RH  034%=      5-min Rain = 0
KME1 192232Z 34013KT 13/M02 A3026 RMK A01 T01331023  RH  034%=      5-min Rain = 0
KME1 192233Z 33010KT 13/M02 A3026 RMK A01 T01321024  RH  034%=      5-min Rain = 0
KME1 192234Z 34012G17KT 13/M02 A3026 RMK A01 T01321023  RH  034%=      5-min Rain = 0
KME1 192235Z 33012KT 13/M02 A3026 RMK A01 T01331024  RH  034%=      5-min Rain = 0
KME1 192236Z 34014KT 13/M03 A3026 RMK A01 T01321026  RH  033%=      5-min Rain = 0
KME1 192237Z 35015KT 13/M03 A3026 RMK A01 T01321025  RH  034%=      5-min Rain = 0
KME1 192238Z 34016KT 13/M03 A3026 RMK A01 T01311025  RH  034%=      5-min Rain = 0
KME1 192239Z 34012KT 13/M03 A3026 RMK A01 T01311025  RH  034%=      5-min Rain = 0
KME1 192240Z 34012KT 13/M02 A3026 RMK A01 T01311023  RH  034%=      5-min Rain = 0
KME1 192241Z 34012KT 13/M02 A3026 RMK A01 T01311024  RH  034%=      5-min Rain = 0
KME1 192242Z 33011KT 13/M03 A3026 RMK A01 T01311025  RH  034%=      5-min Rain = 0
KME1 192243Z 33011KT 13/M03 A3027 RMK A01 T01311025  RH  034%=      5-min Rain = 0
KME1 192244Z 34011KT 13/M02 A3027 RMK A01 T01311024  RH  034%=      5-min Rain = 0
KME1 192245Z 33010KT 13/M03 A3026 RMK A01 T01311025  RH  034%=      5-min Rain = 0
KME1 192246Z 33009KT 13/M02 A3026 RMK A01 T01311024  RH  034%=      5-min Rain = 0
KME1 192247Z 34008KT 13/M02 A3026 RMK A01 T01321023  RH  034%=      5-min Rain = 0
KME1 192248Z 34007KT 13/M02 A3026 RMK A01 T01321022  RH  034%=      5-min Rain = 0
KME1 192249Z 34010KT 13/M02 A3026 RMK A01 T01331021  RH  034%=      5-min Rain = 0
KME1 192250Z 34010KT 13/M02 A3026 RMK A01 T01341022  RH  034%=      5-min Rain = 0
KME1 192251Z 34013KT 13/M02 A3026 RMK A01 T01331023  RH  034%=      5-min Rain = 0
KME1 192252Z 34012KT 13/M02 A3026 RMK A01 T01321024  RH  034%=      5-min Rain = 0
KME1 192253Z 33011G16KT 13/M02 A3026 RMK A01 T01321023  RH  034%=      5-min Rain = 0
KME1 192254Z 33010KT 13/M02 A3026 RMK A01 T01321024  RH  034%=      5-min Rain = 0
KME1 192255Z 34012KT 13/M02 A3027 RMK A01 T01321023  RH  034%=      5-min Rain = 0
KME1 192256Z 33014KT 13/M02 A3027 RMK A01 T01321023  RH  034%=      5-min Rain = 0
KME1 192257Z 33014KT 13/M03 A3027 RMK A01 T01311025  RH  034%=      5-min Rain = 0
KME1 192258Z 33012KT 13/M03 A3027 RMK A01 T01301025  RH  034%=      5-min Rain = 0
KME1 192259Z 33010KT 13/M02 A3027 RMK A01 T01301024  RH  034%=      5-min Rain = 0
KME1 192300Z 33011KT 13/M03 A3027 RMK A01 T01301025  RH  034%=      5-min Rain = 0
KME1 192301Z 32010KT 13/M03 A3027 RMK A01 T01301026  RH  034%=      5-min Rain = 0
KME1 192302Z 33007KT 13/M02 A3027 RMK A01 T01301024  RH  034%=      5-min Rain = 0
KME1 192303Z 33006KT 13/M02 A3027 RMK A01 T01301022  RH  035%=      5-min Rain = 0
KME1 192304Z 34009KT 13/M02 A3027 RMK A01 T01311020  RH  035%=      5-min Rain = 0
KME1 192305Z 34011KT 13/M02 A3027 RMK A01 T01311022  RH  035%=      5-min Rain = 0
KME1 192306Z 34011KT 13/M02 A3027 RMK A01 T01311022  RH  035%=      5-min Rain = 0
KME1 192307Z 33011KT 13/M02 A3027 RMK A01 T01301023  RH  035%=      5-min Rain = 0
KME1 192308Z 34009KT 13/M02 A3027 RMK A01 T01301022  RH  035%=      5-min Rain = 0
KME1 192309Z 35009KT 13/M02 A3027 RMK A01 T01301019  RH  035%=      5-min Rain = 0
KME1 192310Z 34009KT 13/M02 A3027 RMK A01 T01301018  RH  036%=      5-min Rain = 0
KME1 192311Z 34008KT 13/M02 A3027 RMK A01 T01301021  RH  035%=      5-min Rain = 0
KME1 192312Z 34009KT 13/M02 A3027 RMK A01 T01301020  RH  035%=      5-min Rain = 0
KME1 192313Z 34006KT 13/M02 A3027 RMK A01 T01301019  RH  035%=      5-min Rain = 0
KME1 192314Z 35007KT 13/M02 A3027 RMK A01 T01301019  RH  036%=      5-min Rain = 0
KME1 192315Z 36011KT 13/M02 A3027 RMK A01 T01291018  RH  036%=      5-min Rain = 0
KME1 192316Z 36010KT 13/M02 A3027 RMK A01 T01291020  RH  036%=      5-min Rain = 0
KME1 192317Z 36010KT 13/M02 A3027 RMK A01 T01271021  RH  036%=      5-min Rain = 0
KME1 192318Z 01012KT 13/M02 A3027 RMK A01 T01271022  RH  036%=      5-min Rain = 0
KME1 192319Z 35011KT 13/M02 A3027 RMK A01 T01261022  RH  036%=      5-min Rain = 0
KME1 192320Z 35009KT 13/M02 A3027 RMK A01 T01261020  RH  036%=      5-min Rain = 0
KME1 192321Z 36009KT 13/M02 A3027 RMK A01 T01261019  RH  037%=      5-min Rain = 0
KME1 192322Z 36009KT 13/M02 A3027 RMK A01 T01251019  RH  037%=      5-min Rain = 0
KME1 192323Z 00010KT 12/M02 A3027 RMK A01 T01241019  RH  037%=      5-min Rain = 0
KME1 192324Z 01009KT 12/M02 A3027 RMK A01 T01241020  RH  037%=      5-min Rain = 0
KME1 192325Z 01010KT 12/M02 A3027 RMK A01 T01231018  RH  037%=      5-min Rain = 0
KME1 192326Z 01011KT 12/M02 A3027 RMK A01 T01221019  RH  037%=      5-min Rain = 0
KME1 192327Z 01011KT 12/M02 A3027 RMK A01 T01221019  RH  037%=      5-min Rain = 0
KME1 192328Z 00009KT 12/M02 A3027 RMK A01 T01221019  RH  037%=      5-min Rain = 0
KME1 192329Z 36010KT 12/M02 A3027 RMK A01 T01211018  RH  038%=      5-min Rain = 0
KME1 192330Z 00010KT 12/M02 A3027 RMK A01 T01211020  RH  038%=      5-min Rain = 0
KME1 192331Z 36011KT 12/M02 A3027 RMK A01 T01211020  RH  037%=      5-min Rain = 0
KME1 192332Z 36010KT 12/M02 A3027 RMK A01 T01211020  RH  037%=      5-min Rain = 0
KME1 192333Z 00009KT 12/M02 A3027 RMK A01 T01201019  RH  038%=      5-min Rain = 0
KME1 192334Z 00009KT 12/M02 A3027 RMK A01 T01201018  RH  038%=      5-min Rain = 0
KME1 192335Z 36009KT 12/M02 A3027 RMK A01 T01191019  RH  038%=      5-min Rain = 0
KME1 192336Z 00009KT 12/M02 A3027 RMK A01 T01191019  RH  038%=      5-min Rain = 0
KME1 192337Z 36008KT 12/M02 A3027 RMK A01 T01191018  RH  038%=      5-min Rain = 0
KME1 192338Z 00010KT 12/M02 A3027 RMK A01 T01181018  RH  039%=      5-min Rain = 0
KME1 192339Z 01009KT 12/M02 A3027 RMK A01 T01181019  RH  039%=      5-min Rain = 0
KME1 192340Z 00007KT 12/M02 A3027 RMK A01 T01171017  RH  039%=      5-min Rain = 0
KME1 192341Z 00009KT 12/M02 A3027 RMK A01 T01161017  RH  040%=      5-min Rain = 0
KME1 192342Z 00009KT 12/M02 A3027 RMK A01 T01161017  RH  040%=      5-min Rain = 0
KME1 192343Z 00009KT 12/M02 A3027 RMK A01 T01151018  RH  039%=      5-min Rain = 0
KME1 192344Z 00008KT 12/M02 A3027 RMK A01 T01151017  RH  040%=      5-min Rain = 0
KME1 192345Z 01007KT 12/M02 A3027 RMK A01 T01151017  RH  040%=      5-min Rain = 0
KME1 192346Z 01009KT 11/M02 A3027 RMK A01 T01141017  RH  040%=      5-min Rain = 0
KME1 192347Z 01008KT 11/M02 A3027 RMK A01 T01131017  RH  040%=      5-min Rain = 0
KME1 192348Z 01008KT 11/M02 A3027 RMK A01 T01121017  RH  041%=      5-min Rain = 0
KME1 192349Z 00008KT 11/M02 A3027 RMK A01 T01111017  RH  041%=      5-min Rain = 0
KME1 192350Z 01007KT 11/M02 A3027 RMK A01 T01111017  RH  041%=      5-min Rain = 0
KME1 192351Z 01008KT 11/M02 A3027 RMK A01 T01101016  RH  041%=      5-min Rain = 0
KME1 192352Z 01008KT 11/M02 A3027 RMK A01 T01091017  RH  042%=      5-min Rain = 0
KME1 192353Z 00008KT 11/M02 A3027 RMK A01 T01091017  RH  042%=      5-min Rain = 0
KME1 192354Z 00007KT 11/M02 A3027 RMK A01 T01091017  RH  042%=      5-min Rain = 0
KME1 192355Z 00007KT 11/M02 A3027 RMK A01 T01081017  RH  042%=      5-min Rain = 0
KME1 192356Z 36007KT 11/M02 A3027 RMK A01 T01071017  RH  042%=      5-min Rain = 0
KME1 192357Z 00007KT 11/M02 A3027 RMK A01 T01071017  RH  042%=      5-min Rain = 0
KME1 192358Z 00007KT 11/M02 A3027 RMK A01 T01061017  RH  042%=      5-min Rain = 0
KME1 192359Z 00007KT 11/M02 A3027 RMK A01 T01051016  RH  043%=      5-min Rain = 0
KME1 200000Z 01007KT 10/M02 A3027 RMK A01 T01041017  RH  043%=      5-min Rain = 0
KME1 200001Z 01006KT 10/M02 A3027 RMK A01 T01041016  RH  043%=      5-min Rain = 0
KME1 200002Z 01006KT 10/M02 A3027 RMK A01 T01021015  RH  044%=      5-min Rain = 0
KME1 200003Z 01007KT 10/M02 A3027 RMK A01 T00991015  RH  045%=      5-min Rain = 0
KME1 200004Z 01006KT 10/M02 A3027 RMK A01 T00971015  RH  045%=      5-min Rain = 0
KME1 200005Z 01006KT 10/M01 A3027 RMK A01 T00971014  RH  046%=      5-min Rain = 0
KME1 200006Z 01006KT 10/M01 A3027 RMK A01 T00951014  RH  046%=      5-min Rain = 0
KME1 200007Z 01006KT 09/M01 A3027 RMK A01 T00941014  RH  047%=      5-min Rain = 0
KME1 200008Z 01006KT 09/M01 A3027 RMK A01 T00931014  RH  047%=      5-min Rain = 0
KME1 200009Z 01006KT 09/M01 A3027 RMK A01 T00921014  RH  048%=      5-min Rain = 0
KME1 200010Z 01006KT 09/M01 A3027 RMK A01 T00911013  RH  048%=      5-min Rain = 0
KME1 200011Z 01005KT 09/M01 A3027 RMK A01 T00891013  RH  049%=      5-min Rain = 0
KME1 200012Z 00005KT 09/M01 A3027 RMK A01 T00881013  RH  049%=      5-min Rain = 0
KME1 200013Z 00006KT 09/M01 A3027 RMK A01 T00881014  RH  049%=      5-min Rain = 0
KME1 200014Z 00005KT 09/M01 A3027 RMK A01 T00881014  RH  049%=      5-min Rain = 0
KME1 200015Z 00005KT 09/M01 A3027 RMK A01 T00871014  RH  049%=      5-min Rain = 0
KME1 200016Z 00005KT 09/M01 A3027 RMK A01 T00861014  RH  049%=      5-min Rain = 0
KME1 200017Z 01005KT 09/M01 A3027 RMK A01 T00861014  RH  049%=      5-min Rain = 0
KME1 200018Z 01005KT 09/M01 A3027 RMK A01 T00851014  RH  050%=      5-min Rain = 0
KME1 200019Z 01005KT 08/M01 A3027 RMK A01 T00841014  RH  050%=      5-min Rain = 0
KME1 200020Z 01005KT 08/M01 A3027 RMK A01 T00841013  RH  051%=      5-min Rain = 0
KME1 200021Z 01005KT 08/M01 A3027 RMK A01 T00831013  RH  051%=      5-min Rain = 0
KME1 200022Z 01004KT 08/M01 A3027 RMK A01 T00821014  RH  051%=      5-min Rain = 0
KME1 200023Z 00004KT 08/M01 A3027 RMK A01 T00811014  RH  051%=      5-min Rain = 0
KME1 200024Z 00004KT 08/M01 A3027 RMK A01 T00811014  RH  051%=      5-min Rain = 0
KME1 200025Z 00003KT 08/M02 A3027 RMK A01 T00811015  RH  051%=      5-min Rain = 0
KME1 200026Z 01003KT 08/M02 A3027 RMK A01 T00801015  RH  051%=      5-min Rain = 0
KME1 200027Z 01003KT 08/M02 A3027 RMK A01 T00791015  RH  051%=      5-min Rain = 0
KME1 200028Z 02002KT 08/M02 A3027 RMK A01 T00791015  RH  052%=      5-min Rain = 0
KME1 200029Z 02002KT 08/M02 A3027 RMK A01 T00781015  RH  052%=      5-min Rain = 0
KME1 200030Z 02002KT 08/M02 A3027 RMK A01 T00781015  RH  052%=      5-min Rain = 0
KME1 200031Z 03001KT 08/M02 A3027 RMK A01 T00771015  RH  052%=      5-min Rain = 0
KME1 200032Z 04001KT 08/M02 A3027 RMK A01 T00771015  RH  052%=      5-min Rain = 0
KME1 200033Z 04001KT 08/M02 A3027 RMK A01 T00761015  RH  053%=      5-min Rain = 0
KME1 200034Z 04001KT 08/M02 A3027 RMK A01 T00761015  RH  053%=      5-min Rain = 0
KME1 200035Z 05000KT 08/M01 A3028 RMK A01 T00761014  RH  053%=      5-min Rain = 0
KME1 200036Z 00000KT 08/M01 A3028 RMK A01 T00761013  RH  054%=      5-min Rain = 0
KME1 200037Z 00000KT 08/M01 A3028 RMK A01 T00751012  RH  054%=      5-min Rain = 0
KME1 200038Z 00000KT 07/M01 A3028 RMK A01 T00741011  RH  055%=      5-min Rain = 0
KME1 200039Z 00000KT 07/M01 A3028 RMK A01 T00731011  RH  055%=      5-min Rain = 0
KME1 200040Z 12001KT 07/M01 A3028 RMK A01 T00721011  RH  056%=      5-min Rain = 0
KME1 200041Z 14001KT 07/M01 A3028 RMK A01 T00701012  RH  056%=      5-min Rain = 0
KME1 200042Z 15001KT 07/M01 A3028 RMK A01 T00701012  RH  056%=      5-min Rain = 0
KME1 200043Z 15001KT 07/M01 A3028 RMK A01 T00691011  RH  057%=      5-min Rain = 0
KME1 200044Z 15001KT 07/M01 A3028 RMK A01 T00671011  RH  057%=      5-min Rain = 0
KME1 200045Z 15001KT 07/M01 A3028 RMK A01 T00671012  RH  057%=      5-min Rain = 0
KME1 200046Z 14001KT 07/M01 A3028 RMK A01 T00671013  RH  056%=      5-min Rain = 0
KME1 200047Z 14001KT 07/M01 A3028 RMK A01 T00691013  RH  056%=      5-min Rain = 0
KME1 200048Z 15000KT 07/M01 A3028 RMK A01 T00701013  RH  056%=      5-min Rain = 0
KME1 200049Z 12000KT 07/M01 A3028 RMK A01 T00711013  RH  055%=      5-min Rain = 0
KME1 200050Z 10000KT 07/M01 A3028 RMK A01 T00721012  RH  055%=      5-min Rain = 0
KME1 200051Z 00000KT 07/M01 A3028 RMK A01 T00711011  RH  056%=      5-min Rain = 0
KME1 200052Z 00000KT 07/M01 A3028 RMK A01 T00711012  RH  055%=      5-min Rain = 0
KME1 200053Z 10000KT 07/M01 A3028 RMK A01 T00711014  RH  055%=      5-min Rain = 0
KME1 200054Z 00000KT 07/M01 A3028 RMK A01 T00731014  RH  054%=      5-min Rain = 0
KME1 200055Z 09000KT 07/M01 A3028 RMK A01 T00741014  RH  054%=      5-min Rain = 0
KME1 200056Z 07000KT 08/M01 A3028 RMK A01 T00751014  RH  053%=      5-min Rain = 0
KME1 200057Z 05001KT 08/M01 A3028 RMK A01 T00761014  RH  053%=      5-min Rain = 0
KME1 200058Z 04001KT 08/M01 A3028 RMK A01 T00771014  RH  052%=      5-min Rain = 0
KME1 200059Z 03001KT 08/M01 A3028 RMK A01 T00781014  RH  052%=      5-min Rain = 0
KME1 200100Z 03001KT 08/M01 A3028 RMK A01 T00771014  RH  052%=      5-min Rain = 0
KME1 200101Z 02002KT 08/M01 A3028 RMK A01 T00771014  RH  052%=      5-min Rain = 0
KME1 200102Z 02002KT 08/M01 A3028 RMK A01 T00771014  RH  052%=      5-min Rain = 0
KME1 200103Z 02002KT 08/M02 A3028 RMK A01 T00781015  RH  052%=      5-min Rain = 0
KME1 200104Z 01002KT 08/M02 A3028 RMK A01 T00781015  RH  052%=      5-min Rain = 0
KME1 200105Z 01002KT 08/M02 A3028 RMK A01 T00781015  RH  052%=      5-min Rain = 0
KME1 200106Z 01002KT 08/M02 A3028 RMK A01 T00781015  RH  052%=      5-min Rain = 0
KME1 200107Z 00002KT 08/M02 A3028 RMK A01 T00781015  RH  052%=      5-min Rain = 0
KME1 200108Z 00002KT 08/M02 A3028 RMK A01 T00791015  RH  051%=      5-min Rain = 0
KME1 200109Z 00002KT 08/M02 A3028 RMK A01 T00791015  RH  051%=      5-min Rain = 0
KME1 200110Z 00002KT 08/M02 A3028 RMK A01 T00781015  RH  052%=      5-min Rain = 0
KME1 200111Z 00002KT 08/M02 A3028 RMK A01 T00771016  RH  052%=      5-min Rain = 0
KME1 200112Z 00002KT 08/M02 A3028 RMK A01 T00751016  RH  053%=      5-min Rain = 0
KME1 200113Z 00003KT 07/M02 A3029 RMK A01 T00741016  RH  053%=      5-min Rain = 0
KME1 200114Z 36003KT 07/M02 A3029 RMK A01 T00741015  RH  053%=      5-min Rain = 0
KME1 200115Z 35002KT 07/M02 A3029 RMK A01 T00741015  RH  053%=      5-min Rain = 0
KME1 200116Z 35002KT 07/M02 A3029 RMK A01 T00711016  RH  054%=      5-min Rain = 0
KME1 200117Z 35002KT 07/M02 A3029 RMK A01 T00701016  RH  054%=      5-min Rain = 0
KME1 200118Z 35002KT 07/M02 A3029 RMK A01 T00691016  RH  055%=      5-min Rain = 0
KME1 200119Z 35002KT 07/M02 A3029 RMK A01 T00691015  RH  055%=      5-min Rain = 0
KME1 200120Z 34002KT 07/M02 A3029 RMK A01 T00691015  RH  055%=      5-min Rain = 0
KME1 200121Z 33002KT 07/M02 A3029 RMK A01 T00681015  RH  056%=      5-min Rain = 0
KME1 200122Z 32002KT 06/M01 A3029 RMK A01 T00641013  RH  058%=      5-min Rain = 0
KME1 200123Z 31002KT 06/M01 A3029 RMK A01 T00601012  RH  060%=      5-min Rain = 0
KME1 200124Z 31002KT 06/M01 A3029 RMK A01 T00561012  RH  061%=      5-min Rain = 0
KME1 200125Z 31001KT 05/M01 A3029 RMK A01 T00541012  RH  062%=      5-min Rain = 0
KME1 200126Z 31001KT 05/M01 A3029 RMK A01 T00491014  RH  064%=      5-min Rain = 0
KME1 200127Z 30002KT 04/M02 A3029 RMK A01 T00441016  RH  065%=      5-min Rain = 0
KME1 200128Z 29002KT 04/M02 A3029 RMK A01 T00381016  RH  068%=      5-min Rain = 0
KME1 200129Z 29002KT 03/M02 A3029 RMK A01 T00341015  RH  070%=      5-min Rain = 0
KME1 200130Z 29002KT 03/M01 A3029 RMK A01 T00301014  RH  073%=      5-min Rain = 0
KME1 200131Z 29001KT 03/M02 A3029 RMK A01 T00271015  RH  074%=      5-min Rain = 0
KME1 200132Z 29001KT 02/M02 A3029 RMK A01 T00241015  RH  075%=      5-min Rain = 0
KME1 200133Z 28001KT 02/M02 A303 RMK A01 T00231015  RH  076%=      5-min Rain = 0
KME1 200134Z 27001KT 02/M02 A303 RMK A01 T00211015  RH  077%=      5-min Rain = 0
KME1 200135Z 27001KT 02/M01 A303 RMK A01 T00211014  RH  077%=      5-min Rain = 0
KME1 200136Z 27001KT 02/M01 A303 RMK A01 T00211014  RH  078%=      5-min Rain = 0
KME1 200137Z 27001KT 02/M01 A303 RMK A01 T00211013  RH  078%=      5-min Rain = 0
KME1 200138Z 27002KT 02/M01 A303 RMK A01 T00211014  RH  078%=      5-min Rain = 0
KME1 200139Z 27002KT 02/M01 A303 RMK A01 T00211014  RH  078%=      5-min Rain = 0
KME1 200140Z 27002KT 02/M01 A303 RMK A01 T00211011  RH  079%=      5-min Rain = 0
KME1 200141Z 27002KT 02/M01 A303 RMK A01 T00211010  RH  080%=      5-min Rain = 0
KME1 200142Z 27002KT 02/M01 A303 RMK A01 T00211009  RH  080%=      5-min Rain = 0
KME1 200143Z 27001KT 02/M01 A303 RMK A01 T00211009  RH  080%=      5-min Rain = 0
KME1 200144Z 26001KT 02/M01 A303 RMK A01 T00211010  RH  080%=      5-min Rain = 0
KME1 200145Z 26001KT 02/M01 A303 RMK A01 T00211010  RH  080%=      5-min Rain = 0
KME1 200146Z 26002KT 02/M01 A303 RMK A01 T00221010  RH  080%=      5-min Rain = 0
KME1 200147Z 26002KT 02/M01 A303 RMK A01 T00221010  RH  079%=      5-min Rain = 0
KME1 200148Z 26002KT 02/M01 A303 RMK A01 T00221010  RH  079%=      5-min Rain = 0
KME1 200149Z 25002KT 02/M01 A303 RMK A01 T00231010  RH  079%=      5-min Rain = 0
KME1 200150Z 25002KT 02/M01 A303 RMK A01 T00241010  RH  079%=      5-min Rain = 0
KME1 200151Z 25002KT 03/M01 A303 RMK A01 T00251009  RH  078%=      5-min Rain = 0
KME1 200152Z 25002KT 03/M01 A303 RMK A01 T00251010  RH  078%=      5-min Rain = 0
KME1 200153Z 24002KT 02/M01 A303 RMK A01 T00241011  RH  077%=      5-min Rain = 0
KME1 200154Z 24002KT 02/M01 A303 RMK A01 T00241012  RH  077%=      5-min Rain = 0
KME1 200155Z 24002KT 02/M01 A303 RMK A01 T00241012  RH  077%=      5-min Rain = 0
KME1 200156Z 24002KT 02/M01 A303 RMK A01 T00231013  RH  077%=      5-min Rain = 0
KME1 200157Z 24002KT 02/M02 A303 RMK A01 T00221015  RH  077%=      5-min Rain = 0
KME1 200158Z 25001KT 02/M02 A303 RMK A01 T00191017  RH  077%=      5-min Rain = 0
KME1 200159Z 26000KT 02/M02 A3031 RMK A01 T00171017  RH  078%=      5-min Rain = 0
KME1 200200Z 00000KT 02/M02 A3031 RMK A01 T00161017  RH  079%=      5-min Rain = 0
KME1 200201Z 00000KT 02/M02 A3031 RMK A01 T00161016  RH  079%=      5-min Rain = 0
KME1 200202Z 06000KT 02/M02 A3031 RMK A01 T00161016  RH  080%=      5-min Rain = 0
KME1 200203Z 06001KT 02/M02 A3031 RMK A01 T00161015  RH  080%=      5-min Rain = 0
KME1 200204Z 09001KT 02/M02 A3031 RMK A01 T00161015  RH  080%=      5-min Rain = 0
KME1 200205Z 10000KT 02/M01 A3031 RMK A01 T00161014  RH  080%=      5-min Rain = 0
KME1 200206Z 10000KT 02/M01 A3031 RMK A01 T00161014  RH  080%=      5-min Rain = 0
KME1 200207Z 00000KT 02/M02 A3031 RMK A01 T00161015  RH  080%=      5-min Rain = 0
KME1 200208Z 00000KT 02/M01 A3031 RMK A01 T00161014  RH  080%=      5-min Rain = 0
KME1 200209Z 00000KT 02/M01 A3031 RMK A01 T00161014  RH  080%=      5-min Rain = 0
KME1 200210Z 00000KT 02/M02 A3031 RMK A01 T00161015  RH  080%=      5-min Rain = 0
KME1 200211Z 00000KT 02/M02 A3031 RMK A01 T00161015  RH  080%=      5-min Rain = 0
KME1 200212Z 00000KT 02/M02 A3031 RMK A01 T00161015  RH  080%=      5-min Rain = 0
KME1 200213Z 00000KT 02/M01 A3031 RMK A01 T00161014  RH  080%=      5-min Rain = 0
KME1 200214Z 00000KT 02/M01 A3031 RMK A01 T00161014  RH  081%=      5-min Rain = 0
KME1 200215Z 00000KT 02/M01 A3031 RMK A01 T00161014  RH  081%=      5-min Rain = 0
KME1 200216Z 00000KT 02/M01 A3031 RMK A01 T00161014  RH  081%=      5-min Rain = 0
KME1 200217Z 00000KT 02/M01 A3031 RMK A01 T00151014  RH  081%=      5-min Rain = 0
KME1 200218Z 10000KT 02/M02 A3031 RMK A01 T00151015  RH  081%=      5-min Rain = 0
KME1 200219Z 05000KT 01/M02 A3031 RMK A01 T00141015  RH  081%=      5-min Rain = 0
KME1 200220Z 05001KT 01/M02 A3031 RMK A01 T00141015  RH  081%=      5-min Rain = 0
KME1 200221Z 05001KT 01/M02 A3031 RMK A01 T00141015  RH  081%=      5-min Rain = 0
KME1 200222Z 05001KT 01/M02 A3031 RMK A01 T00131016  RH  081%=      5-min Rain = 0
KME1 200223Z 05001KT 01/M02 A3031 RMK A01 T00131016  RH  081%=      5-min Rain = 0
KME1 200224Z 05001KT 01/M02 A3031 RMK A01 T00131016  RH  081%=      5-min Rain = 0
KME1 200225Z 05001KT 01/M02 A3031 RMK A01 T00121016  RH  081%=      5-min Rain = 0
KME1 200226Z 05001KT 01/M02 A3031 RMK A01 T00121016  RH  082%=      5-min Rain = 0
KME1 200227Z 05000KT 01/M02 A3031 RMK A01 T00121016  RH  082%=      5-min Rain = 0
KME1 200228Z 00000KT 01/M02 A3031 RMK A01 T00121015  RH  082%=      5-min Rain = 0
KME1 200229Z 00000KT 01/M01 A3031 RMK A01 T00131014  RH  082%=      5-min Rain = 0
KME1 200230Z 00000KT 01/M01 A3031 RMK A01 T00131014  RH  082%=      5-min Rain = 0
KME1 200231Z 00000KT 01/M01 A3031 RMK A01 T00141014  RH  082%=      5-min Rain = 0
KME1 200232Z 15000KT 01/M01 A3031 RMK A01 T00141014  RH  081%=      5-min Rain = 0
KME1 200233Z 15001KT 01/M01 A3031 RMK A01 T00141014  RH  082%=      5-min Rain = 0
KME1 200234Z 15000KT 01/M02 A3031 RMK A01 T00131016  RH  081%=      5-min Rain = 0
KME1 200235Z 15001KT 01/M02 A3031 RMK A01 T00101018  RH  081%=      5-min Rain = 0
KME1 200236Z 15001KT 01/M02 A3031 RMK A01 T00081019  RH  082%=      5-min Rain = 0
KME1 200237Z 15001KT 01/M02 A3031 RMK A01 T00061019  RH  083%=      5-min Rain = 0
KME1 200238Z 15001KT 01/M02 A3031 RMK A01 T00051018  RH  085%=      5-min Rain = 0
KME1 200239Z 15001KT 00/M02 A3031 RMK A01 T00041018  RH  085%=      5-min Rain = 0
KME1 200240Z 17001KT 00/M02 A3031 RMK A01 T00041017  RH  086%=      5-min Rain = 0
KME1 200241Z 18002KT 00/M02 A3031 RMK A01 T00041016  RH  087%=      5-min Rain = 0
KME1 200242Z 19002KT 00/M02 A3031 RMK A01 T00041015  RH  087%=      5-min Rain = 0
KME1 200243Z 19002KT 00/M01 A3031 RMK A01 T00041014  RH  087%=      5-min Rain = 0
KME1 200244Z 20002KT 00/M02 A3032 RMK A01 T00041015  RH  087%=      5-min Rain = 0
KME1 200245Z 20002KT 01/M01 A3032 RMK A01 T00051014  RH  087%=      5-min Rain = 0
KME1 200246Z 21002KT 01/M02 A3032 RMK A01 T00051015  RH  087%=      5-min Rain = 0
KME1 200247Z 20003KT 01/M01 A3032 RMK A01 T00061014  RH  087%=      5-min Rain = 0
KME1 200248Z 20003KT 01/M01 A3032 RMK A01 T00071014  RH  086%=      5-min Rain = 0
KME1 200249Z 19003KT 01/M01 A3032 RMK A01 T00081013  RH  086%=      5-min Rain = 0
KME1 200250Z 20003KT 01/M01 A3032 RMK A01 T00091013  RH  086%=      5-min Rain = 0
KME1 200251Z 20002KT 01/M01 A3032 RMK A01 T00091013  RH  085%=      5-min Rain = 0
KME1 200252Z 20003KT 01/M01 A3032 RMK A01 T00091014  RH  085%=      5-min Rain = 0
KME1 200253Z 20002KT 01/M01 A3032 RMK A01 T00091014  RH  085%=      5-min Rain = 0
KME1 200254Z 19002KT 01/M02 A3032 RMK A01 T00091015  RH  084%=      5-min Rain = 0
KME1 200255Z 20002KT 01/M02 A3032 RMK A01 T00081016  RH  084%=      5-min Rain = 0
KME1 200256Z 20002KT 01/M02 A3032 RMK A01 T00071016  RH  084%=      5-min Rain = 0
KME1 200257Z 20003KT 01/M02 A3032 RMK A01 T00071016  RH  084%=      5-min Rain = 0
KME1 200258Z 20002KT 01/M02 A3032 RMK A01 T00071015  RH  085%=      5-min Rain = 0
KME1 200259Z 20003KT 01/M01 A3032 RMK A01 T00081014  RH  086%=      5-min Rain = 0
KME1 200300Z 19003KT 01/M01 A3032 RMK A01 T00091013  RH  085%=      5-min Rain = 0
KME1 200301Z 19004KT 01/M01 A3032 RMK A01 T00101012  RH  085%=      5-min Rain = 0
KME1 200302Z 19003KT 01/M01 A3032 RMK A01 T00121012  RH  084%=      5-min Rain = 0
KME1 200303Z 19003KT 01/M01 A3032 RMK A01 T00141012  RH  083%=      5-min Rain = 0
KME1 200304Z 18002KT 01/M01 A3032 RMK A01 T00141013  RH  082%=      5-min Rain = 0
KME1 200305Z 18001KT 01/M02 A3032 RMK A01 T00121017  RH  081%=      5-min Rain = 0
KME1 200306Z 19001KT 01/M02 A3032 RMK A01 T00091021  RH  081%=      5-min Rain = 0
KME1 200307Z 20001KT 01/M02 A3031 RMK A01 T00071022  RH  081%=      5-min Rain = 0
KME1 200308Z 20001KT 01/M02 A3031 RMK A01 T00051021  RH  082%=      5-min Rain = 0
KME1 200309Z 20001KT 01/M02 A3031 RMK A01 T00051020  RH  083%=      5-min Rain = 0
KME1 200310Z 20001KT 01/M02 A3031 RMK A01 T00051019  RH  084%=      5-min Rain = 0
KME1 200311Z 20001KT 01/M02 A3031 RMK A01 T00051018  RH  084%=      5-min Rain = 0
KME1 200312Z 20002KT 01/M02 A3031 RMK A01 T00051018  RH  085%=      5-min Rain = 0
KME1 200313Z 21002KT 01/M02 A3031 RMK A01 T00051017  RH  085%=      5-min Rain = 0
KME1 200314Z 21002KT 01/M02 A3031 RMK A01 T00051015  RH  086%=      5-min Rain = 0
KME1 200315Z 21002KT 01/M01 A3031 RMK A01 T00051014  RH  087%=      5-min Rain = 0
KME1 200316Z 21003KT 01/M01 A3031 RMK A01 T00051013  RH  087%=      5-min Rain = 0
KME1 200317Z 21003KT 01/M01 A3031 RMK A01 T00071013  RH  087%=      5-min Rain = 0
KME1 200318Z 21003KT 01/M01 A3031 RMK A01 T00081012  RH  086%=      5-min Rain = 0
KME1 200319Z 21003KT 01/M01 A3031 RMK A01 T00101011  RH  086%=      5-min Rain = 0
KME1 200320Z 21002KT 01/M01 A3031 RMK A01 T00131011  RH  084%=      5-min Rain = 0
KME1 200321Z 20002KT 01/M01 A3031 RMK A01 T00141011  RH  083%=      5-min Rain = 0
KME1 200322Z 20002KT 02/M01 A3031 RMK A01 T00161012  RH  082%=      5-min Rain = 0
KME1 200323Z 21002KT 02/M01 A3031 RMK A01 T00161013  RH  081%=      5-min Rain = 0
KME1 200324Z 21002KT 02/M01 A3031 RMK A01 T00161013  RH  081%=      5-min Rain = 0
KME1 200325Z 22001KT 02/M01 A3031 RMK A01 T00151014  RH  081%=      5-min Rain = 0
KME1 200326Z 22001KT 01/M02 A3031 RMK A01 T00131015  RH  081%=      5-min Rain = 0
KME1 200327Z 22002KT 01/M02 A3031 RMK A01 T00121016  RH  082%=      5-min Rain = 0
KME1 200328Z 23002KT 01/M02 A3031 RMK A01 T00111016  RH  083%=      5-min Rain = 0
KME1 200329Z 24003KT 01/M02 A3031 RMK A01 T00091017  RH  083%=      5-min Rain = 0
KME1 200330Z 25003KT 01/M02 A3031 RMK A01 T00091016  RH  083%=      5-min Rain = 0
KME1 200331Z 25003KT 01/M02 A3031 RMK A01 T00081017  RH  083%=      5-min Rain = 0
KME1 200332Z 25004KT 01/M02 A3031 RMK A01 T00081017  RH  084%=      5-min Rain = 0
KME1 200333Z 24004KT 01/M02 A3031 RMK A01 T00081016  RH  084%=      5-min Rain = 0
KME1 200334Z 24004KT 01/M02 A3032 RMK A01 T00081015  RH  085%=      5-min Rain = 0
KME1 200335Z 24004KT 01/M02 A3032 RMK A01 T00081015  RH  085%=      5-min Rain = 0
KME1 200336Z 24003KT 01/M01 A3032 RMK A01 T00091014  RH  085%=      5-min Rain = 0
KME1 200337Z 25002KT 01/M01 A3032 RMK A01 T00091014  RH  085%=      5-min Rain = 0
KME1 200338Z 25003KT 01/M01 A3032 RMK A01 T00091014  RH  084%=      5-min Rain = 0
KME1 200339Z 24003KT 01/M01 A3032 RMK A01 T00091014  RH  085%=      5-min Rain = 0
KME1 200340Z 25002KT 01/M01 A3032 RMK A01 T00101013  RH  085%=      5-min Rain = 0
KME1 200341Z 25001KT 01/M01 A3032 RMK A01 T00101013  RH  084%=      5-min Rain = 0
KME1 200342Z 24002KT 01/M01 A3032 RMK A01 T00111013  RH  084%=      5-min Rain = 0
KME1 200343Z 24001KT 01/M01 A3032 RMK A01 T00111014  RH  084%=      5-min Rain = 0
KME1 200344Z 00000KT 01/M02 A3032 RMK A01 T00101015  RH  083%=      5-min Rain = 0
KME1 200345Z 23001KT 01/M02 A3032 RMK A01 T00081018  RH  083%=      5-min Rain = 0
KME1 200346Z 23002KT 01/M02 A3032 RMK A01 T00071020  RH  083%=      5-min Rain = 0
KME1 200347Z 23000KT 01/M02 A3032 RMK A01 T00061020  RH  083%=      5-min Rain = 0
KME1 200348Z 00000KT 00/M02 A3032 RMK A01 T00041022  RH  083%=      5-min Rain = 0
KME1 200349Z 23001KT 00/M02 A3032 RMK A01 T00031022  RH  083%=      5-min Rain = 0
KME1 200350Z 23001KT 00/M02 A3032 RMK A01 T00021021  RH  085%=      5-min Rain = 0
KME1 200351Z 00000KT 00/M02 A3032 RMK A01 T00031019  RH  085%=      5-min Rain = 0
KME1 200352Z 22001KT 00/M02 A3032 RMK A01 T00021022  RH  084%=      5-min Rain = 0
KME1 200353Z 23001KT 00/M02 A3032 RMK A01 T00041017  RH  086%=      5-min Rain = 0
KME1 200354Z 00000KT 01/M01 A3032 RMK A01 T00081013  RH  086%=      5-min Rain = 0
KME1 200355Z 00000KT 01/M01 A3032 RMK A01 T00101013  RH  084%=      5-min Rain = 0
KME1 200356Z 24000KT 01/M02 A3033 RMK A01 T00111015  RH  083%=      5-min Rain = 0
KME1 200357Z 00000KT 01/M02 A3033 RMK A01 T00111017  RH  082%=      5-min Rain = 0
KME1 200358Z 26000KT 01/M02 A3033 RMK A01 T00091018  RH  082%=      5-min Rain = 0
KME1 200359Z 27000KT 01/M02 A3033 RMK A01 T00091018  RH  082%=      5-min Rain = 0
KME1 200400Z 27000KT 01/M02 A3033 RMK A01 T00061021  RH  082%=      5-min Rain = 0
KME1 200401Z 25001KT 01/M02 A3033 RMK A01 T00051020  RH  083%=      5-min Rain = 0
KME1 200402Z 24001KT 01/M02 A3033 RMK A01 T00081016  RH  084%=      5-min Rain = 0
KME1 200403Z 23001KT 01/M02 A3033 RMK A01 T00091016  RH  083%=      5-min Rain = 0
KME1 200404Z 23002KT 01/M02 A3033 RMK A01 T00091017  RH  083%=      5-min Rain = 0
KME1 200405Z 23002KT 01/M02 A3033 RMK A01 T00081018  RH  083%=      5-min Rain = 0
KME1 200406Z 22003KT 01/M02 A3033 RMK A01 T00071018  RH  083%=      5-min Rain = 0
KME1 200407Z 21002KT 01/M02 A3033 RMK A01 T00071017  RH  084%=      5-min Rain = 0
KME1 200408Z 21002KT 01/M02 A3033 RMK A01 T00071017  RH  084%=      5-min Rain = 0
KME1 200409Z 22002KT 01/M02 A3033 RMK A01 T00081016  RH  084%=      5-min Rain = 0
KME1 200410Z 21002KT 01/M02 A3033 RMK A01 T00101015  RH  084%=      5-min Rain = 0
KME1 200411Z 20001KT 01/M02 A3033 RMK A01 T00111015  RH  083%=      5-min Rain = 0
KME1 200412Z 20002KT 01/M02 A3033 RMK A01 T00111016  RH  082%=      5-min Rain = 0
KME1 200413Z 19002KT 01/M02 A3034 RMK A01 T00111017  RH  082%=      5-min Rain = 0
KME1 200414Z 19002KT 01/M02 A3034 RMK A01 T00091019  RH  081%=      5-min Rain = 0
KME1 200415Z 19003KT 01/M02 A3034 RMK A01 T00061023  RH  081%=      5-min Rain = 0
KME1 200416Z 19003KT 00/M03 A3034 RMK A01 T00021025  RH  082%=      5-min Rain = 0
KME1 200417Z 19003KT M00/M03 A3034 RMK A01 T10021027  RH  083%=      5-min Rain = 0
KME1 200418Z 19003KT M01/M03 A3034 RMK A01 T10051029  RH  084%=      5-min Rain = 0
KME1 200419Z 19003KT M01/M03 A3034 RMK A01 T10081029  RH  085%=      5-min Rain = 0
KME1 200420Z 20003KT M01/M03 A3034 RMK A01 T10091029  RH  087%=      5-min Rain = 0
KME1 200421Z 20003KT M01/M03 A3034 RMK A01 T10101028  RH  088%=      5-min Rain = 0
KME1 200422Z 20002KT M01/M03 A3034 RMK A01 T10101027  RH  089%=      5-min Rain = 0
KME1 200423Z 20002KT M01/M03 A3034 RMK A01 T10111026  RH  089%=      5-min Rain = 0
KME1 200424Z 20002KT M01/M03 A3034 RMK A01 T10111025  RH  090%=      5-min Rain = 0
KME1 200425Z 20002KT M01/M02 A3034 RMK A01 T10101022  RH  092%=      5-min Rain = 0
KME1 200426Z 20001KT M01/M02 A3034 RMK A01 T10101021  RH  092%=      5-min Rain = 0
KME1 200427Z 20002KT M01/M02 A3034 RMK A01 T10091020  RH  092%=      5-min Rain = 0
KME1 200428Z 20002KT M01/M02 A3034 RMK A01 T10081019  RH  092%=      5-min Rain = 0
KME1 200429Z 20002KT M01/M02 A3034 RMK A01 T10091022  RH  091%=      5-min Rain = 0
KME1 200430Z 20001KT M01/M02 A3034 RMK A01 T10101023  RH  091%=      5-min Rain = 0
KME1 200431Z 20000KT M01/M02 A3034 RMK A01 T10111024  RH  091%=      5-min Rain = 0
KME1 200432Z 00000KT M01/M03 A3035 RMK A01 T10121025  RH  091%=      5-min Rain = 0
KME1 200433Z 00000KT M01/M03 A3035 RMK A01 T10121025  RH  091%=      5-min Rain = 0
KME1 200434Z 00000KT M01/M03 A3035 RMK A01 T10121025  RH  091%=      5-min Rain = 0
KME1 200435Z 14000KT M01/M03 A3035 RMK A01 T10121025  RH  091%=      5-min Rain = 0
KME1 200436Z 16001KT M01/M03 A3034 RMK A01 T10131025  RH  091%=      5-min Rain = 0
KME1 200437Z 17002KT M01/M03 A3034 RMK A01 T10131026  RH  091%=      5-min Rain = 0
KME1 200438Z 17002KT M01/M03 A3034 RMK A01 T10141026  RH  091%=      5-min Rain = 0
KME1 200439Z 18002KT M01/M03 A3034 RMK A01 T10141027  RH  091%=      5-min Rain = 0
KME1 200440Z 18003KT M02/M03 A3034 RMK A01 T10151028  RH  091%=      5-min Rain = 0
KME1 200441Z 18003KT M02/M03 A3034 RMK A01 T10151028  RH  091%=      5-min Rain = 0
KME1 200442Z 18002KT M02/M03 A3034 RMK A01 T10151028  RH  092%=      5-min Rain = 0
KME1 200443Z 20002KT M02/M03 A3035 RMK A01 T10151027  RH  092%=      5-min Rain = 0
KME1 200444Z 21003KT M02/M03 A3035 RMK A01 T10161027  RH  092%=      5-min Rain = 0
KME1 200445Z 21003KT M02/M03 A3035 RMK A01 T10161028  RH  092%=      5-min Rain = 0
KME1 200446Z 21004KT M02/M03 A3035 RMK A01 T10161026  RH  093%=      5-min Rain = 0
KME1 200447Z 21005KT M02/M02 A3035 RMK A01 T10151024  RH  093%=      5-min Rain = 0
KME1 200448Z 21005KT M01/M02 A3035 RMK A01 T10141023  RH  094%=      5-min Rain = 0
KME1 200449Z 21005KT M01/M02 A3035 RMK A01 T10131021  RH  094%=      5-min Rain = 0
KME1 200450Z 21005KT M01/M02 A3035 RMK A01 T10121020  RH  094%=      5-min Rain = 0
KME1 200451Z 21005KT M01/M02 A3035 RMK A01 T10111019  RH  094%=      5-min Rain = 0
KME1 200452Z 21004KT M01/M02 A3035 RMK A01 T10091019  RH  094%=      5-min Rain = 0
KME1 200453Z 22003KT M01/M02 A3035 RMK A01 T10091018  RH  093%=      5-min Rain = 0
KME1 200454Z 22002KT M01/M02 A3035 RMK A01 T10091019  RH  093%=      5-min Rain = 0
KME1 200455Z 22002KT M01/M02 A3035 RMK A01 T10081019  RH  093%=      5-min Rain = 0
KME1 200456Z 23001KT M01/M02 A3035 RMK A01 T10081019  RH  093%=      5-min Rain = 0
KME1 200457Z 23001KT M01/M02 A3035 RMK A01 T10081018  RH  093%=      5-min Rain = 0
KME1 200458Z 22001KT M01/M02 A3035 RMK A01 T10081018  RH  092%=      5-min Rain = 0
KME1 200459Z 22000KT M01/M02 A3035 RMK A01 T10081019  RH  092%=      5-min Rain = 0
KME1 200500Z 22000KT M01/M02 A3035 RMK A01 T10081019  RH  092%=      5-min Rain = 0
KME1 200501Z 22001KT M01/M02 A3036 RMK A01 T10081019  RH  092%=      5-min Rain = 0
KME1 200502Z 20002KT M01/M02 A3036 RMK A01 T10091020  RH  092%=      5-min Rain = 0
KME1 200503Z 21002KT M01/M02 A3036 RMK A01 T10091020  RH  092%=      5-min Rain = 0
KME1 200504Z 20001KT M01/M02 A3036 RMK A01 T10091021  RH  092%=      5-min Rain = 0
KME1 200505Z 20002KT M01/M02 A3035 RMK A01 T10091020  RH  092%=      5-min Rain = 0
KME1 200506Z 20002KT M01/M02 A3035 RMK A01 T10091020  RH  092%=      5-min Rain = 0
KME1 200507Z 20002KT M01/M02 A3035 RMK A01 T10091021  RH  092%=      5-min Rain = 0
KME1 200508Z 21003KT M01/M02 A3035 RMK A01 T10101022  RH  092%=      5-min Rain = 0
KME1 200509Z 21003KT M01/M02 A3035 RMK A01 T10101021  RH  092%=      5-min Rain = 0
KME1 200510Z 21004KT M01/M02 A3035 RMK A01 T10101021  RH  092%=      5-min Rain = 0
KME1 200511Z 21004KT M01/M02 A3035 RMK A01 T10101021  RH  092%=      5-min Rain = 0
KME1 200512Z 21005KT M01/M02 A3035 RMK A01 T10101022  RH  092%=      5-min Rain = 0
KME1 200513Z 21005KT M01/M02 A3035 RMK A01 T10101022  RH  092%=      5-min Rain = 0
KME1 200514Z 20005KT M01/M02 A3035 RMK A01 T10101022  RH  092%=      5-min Rain = 0
KME1 200515Z 20005KT M01/M02 A3035 RMK A01 T10091021  RH  092%=      5-min Rain = 0
KME1 200516Z 19004KT M01/M02 A3035 RMK A01 T10101021  RH  092%=      5-min Rain = 0
KME1 200517Z 19004KT M01/M02 A3034 RMK A01 T10101022  RH  092%=      5-min Rain = 0
KME1 200518Z 19004KT M01/M02 A3034 RMK A01 T10101023  RH  091%=      5-min Rain = 0
KME1 200519Z 20004KT M01/M02 A3035 RMK A01 T10111023  RH  092%=      5-min Rain = 0
KME1 200520Z 20004KT M01/M02 A3035 RMK A01 T10101022  RH  092%=      5-min Rain = 0
KME1 200521Z 19004KT M01/M02 A3035 RMK A01 T10101021  RH  092%=      5-min Rain = 0
KME1 200522Z 19003KT M01/M02 A3035 RMK A01 T10101022  RH  092%=      5-min Rain = 0
KME1 200523Z 19003KT M01/M02 A3035 RMK A01 T10101021  RH  092%=      5-min Rain = 0
KME1 200524Z 19003KT M01/M02 A3035 RMK A01 T10101021  RH  092%=      5-min Rain = 0
KME1 200525Z 19003KT M01/M02 A3035 RMK A01 T10101021  RH  092%=      5-min Rain = 0
KME1 200526Z 19004KT M01/M02 A3035 RMK A01 T10101021  RH  092%=      5-min Rain = 0
KME1 200527Z 19004KT M01/M02 A3035 RMK A01 T10101021  RH  092%=      5-min Rain = 0
KME1 200528Z 20005KT M01/M02 A3035 RMK A01 T10101021  RH  092%=      5-min Rain = 0
KME1 200529Z 20005KT M01/M02 A3035 RMK A01 T10101021  RH  092%=      5-min Rain = 0
KME1 200530Z 20004KT M01/M02 A3035 RMK A01 T10101021  RH  092%=      5-min Rain = 0
KME1 200531Z 20004KT M01/M02 A3035 RMK A01 T10101020  RH  092%=      5-min Rain = 0
KME1 200532Z 19004KT M01/M02 A3034 RMK A01 T10101021  RH  093%=      5-min Rain = 0
KME1 200533Z 18005KT M01/M02 A3034 RMK A01 T10101021  RH  093%=      5-min Rain = 0
KME1 200534Z 18005KT M01/M02 A3033 RMK A01 T10101021  RH  093%=      5-min Rain = 0
KME1 200535Z 19005KT M01/M02 A3034 RMK A01 T10101021  RH  093%=      5-min Rain = 0
KME1 200536Z 19004KT M01/M02 A3034 RMK A01 T10101021  RH  092%=      5-min Rain = 0
KME1 200537Z 19004KT M01/M02 A3034 RMK A01 T10101021  RH  092%=      5-min Rain = 0
KME1 200538Z 19004KT M01/M02 A3034 RMK A01 T10101021  RH  092%=      5-min Rain = 0
KME1 200539Z 19004KT M01/M02 A3034 RMK A01 T10111022  RH  092%=      5-min Rain = 0
KME1 200540Z 19004KT M01/M02 A3034 RMK A01 T10111022  RH  092%=      5-min Rain = 0
KME1 200541Z 20004KT M01/M02 A3034 RMK A01 T10101021  RH  092%=      5-min Rain = 0
KME1 200542Z 21004KT M01/M02 A3034 RMK A01 T10111022  RH  092%=      5-min Rain = 0
KME1 200543Z 21004KT M01/M02 A3034 RMK A01 T10111022  RH  092%=      5-min Rain = 0
KME1 200544Z 21005KT M01/M02 A3034 RMK A01 T10111022  RH  092%=      5-min Rain = 0
KME1 200545Z 21005KT M01/M02 A3034 RMK A01 T10111022  RH  092%=      5-min Rain = 0
KME1 200546Z 22005KT M01/M02 A3034 RMK A01 T10111022  RH  092%=      5-min Rain = 0
KME1 200547Z 22005KT M01/M02 A3034 RMK A01 T10111022  RH  092%=      5-min Rain = 0
KME1 200548Z 23005KT M01/M02 A3035 RMK A01 T10111022  RH  092%=      5-min Rain = 0
KME1 200549Z 22004KT M01/M02 A3035 RMK A01 T10111022  RH  092%=      5-min Rain = 0
KME1 200550Z 22004KT M01/M02 A3035 RMK A01 T10111021  RH  093%=      5-min Rain = 0
KME1 200551Z 22004KT M01/M02 A3034 RMK A01 T10101021  RH  092%=      5-min Rain = 0
KME1 200552Z 21004KT M01/M02 A3035 RMK A01 T10111022  RH  092%=      5-min Rain = 0
KME1 200553Z 21004KT M01/M02 A3035 RMK A01 T10101022  RH  092%=      5-min Rain = 0
KME1 200554Z 21004KT M01/M02 A3035 RMK A01 T10101022  RH  092%=      5-min Rain = 0
KME1 200555Z 21004KT M01/M02 A3035 RMK A01 T10111022  RH  092%=      5-min Rain = 0
KME1 200556Z 21004KT M01/M02 A3034 RMK A01 T10111023  RH  092%=      5-min Rain = 0
KME1 200557Z 21004KT M01/M02 A3034 RMK A01 T10111023  RH  092%=      5-min Rain = 0
KME1 200558Z 21004KT M01/M02 A3035 RMK A01 T10111023  RH  092%=      5-min Rain = 0
KME1 200559Z 20003KT M01/M02 A3035 RMK A01 T10121024  RH  092%=      5-min Rain = 0

Page generated in 0.0345 seconds.